<?xml version="1.0" encoding="UTF-8" standalone="no" ?>
<gpx xmlns="http://www.topografix.com/GPX/1/1" xmlns:xsi="http://www.w3.org/2001/XMLSchema-instance" xsi:schemaLocation="http://www.topografix.com/GPX/1/1 http://www.topografix.com/GPX/1/1/gpx.xsd" version="1.1" creator="VisuGPX - https://www.visugpx.com">
  <metadata>
    <name>Réserve naturelle de la Sassière</name>
    <desc><![CDATA[Rando raquettes dans la réserve naturelle de la Grande Sassière (26/03/14)]]></desc>
  </metadata>
  <trk>
    <name><![CDATA[SASSIERE]]></name>
    <desc><![CDATA[Total: 7.7km]]></desc>
    <trkseg>
      <trkpt lat="45.47648" lon="6.95529">
        <ele>1930.95</ele>
        <time>2014-03-26T08:57:55Z</time>
      </trkpt>
      <trkpt lat="45.47648" lon="6.95528">
        <ele>1930.46</ele>
        <time>2014-03-26T08:58:12Z</time>
      </trkpt>
      <trkpt lat="45.47648" lon="6.95528">
        <ele>1930.95</ele>
        <time>2014-03-26T08:58:25Z</time>
      </trkpt>
      <trkpt lat="45.47643" lon="6.95511">
        <ele>1931.43</ele>
        <time>2014-03-26T08:58:39Z</time>
      </trkpt>
      <trkpt lat="45.47647" lon="6.95517">
        <ele>1932.39</ele>
        <time>2014-03-26T08:58:56Z</time>
      </trkpt>
      <trkpt lat="45.47647" lon="6.95519">
        <ele>1932.39</ele>
        <time>2014-03-26T08:59:10Z</time>
      </trkpt>
      <trkpt lat="45.4765" lon="6.95522">
        <ele>1933.83</ele>
        <time>2014-03-26T08:59:29Z</time>
      </trkpt>
      <trkpt lat="45.47649" lon="6.95522">
        <ele>1935.27</ele>
        <time>2014-03-26T08:59:42Z</time>
      </trkpt>
      <trkpt lat="45.47649" lon="6.95524">
        <ele>1933.35</ele>
        <time>2014-03-26T09:00:04Z</time>
      </trkpt>
      <trkpt lat="45.47648" lon="6.95523">
        <ele>1934.79</ele>
        <time>2014-03-26T09:00:24Z</time>
      </trkpt>
      <trkpt lat="45.47649" lon="6.95521">
        <ele>1936.71</ele>
        <time>2014-03-26T09:00:39Z</time>
      </trkpt>
      <trkpt lat="45.47645" lon="6.95529">
        <ele>1937.19</ele>
        <time>2014-03-26T09:00:46Z</time>
      </trkpt>
      <trkpt lat="45.47644" lon="6.95532">
        <ele>1938.16</ele>
        <time>2014-03-26T09:00:48Z</time>
      </trkpt>
      <trkpt lat="45.47643" lon="6.9554">
        <ele>1936.23</ele>
        <time>2014-03-26T09:01:02Z</time>
      </trkpt>
      <trkpt lat="45.47644" lon="6.95538">
        <ele>1934.31</ele>
        <time>2014-03-26T09:01:18Z</time>
      </trkpt>
      <trkpt lat="45.47639" lon="6.95545">
        <ele>1934.79</ele>
        <time>2014-03-26T09:01:33Z</time>
      </trkpt>
      <trkpt lat="45.47635" lon="6.95558">
        <ele>1935.75</ele>
        <time>2014-03-26T09:01:47Z</time>
      </trkpt>
      <trkpt lat="45.47631" lon="6.95567">
        <ele>1935.27</ele>
        <time>2014-03-26T09:01:59Z</time>
      </trkpt>
      <trkpt lat="45.47625" lon="6.9558">
        <ele>1937.19</ele>
        <time>2014-03-26T09:02:13Z</time>
      </trkpt>
      <trkpt lat="45.47622" lon="6.95594">
        <ele>1938.64</ele>
        <time>2014-03-26T09:02:25Z</time>
      </trkpt>
      <trkpt lat="45.47617" lon="6.95605">
        <ele>1938.16</ele>
        <time>2014-03-26T09:02:38Z</time>
      </trkpt>
      <trkpt lat="45.47611" lon="6.95616">
        <ele>1940.08</ele>
        <time>2014-03-26T09:02:51Z</time>
      </trkpt>
      <trkpt lat="45.47607" lon="6.95625">
        <ele>1942</ele>
        <time>2014-03-26T09:03:02Z</time>
      </trkpt>
      <trkpt lat="45.47606" lon="6.95634">
        <ele>1942.48</ele>
        <time>2014-03-26T09:03:12Z</time>
      </trkpt>
      <trkpt lat="45.476" lon="6.95646">
        <ele>1943.44</ele>
        <time>2014-03-26T09:03:28Z</time>
      </trkpt>
      <trkpt lat="45.47596" lon="6.95658">
        <ele>1944.88</ele>
        <time>2014-03-26T09:03:43Z</time>
      </trkpt>
      <trkpt lat="45.47592" lon="6.95668">
        <ele>1945.36</ele>
        <time>2014-03-26T09:03:57Z</time>
      </trkpt>
      <trkpt lat="45.47588" lon="6.95678">
        <ele>1946.33</ele>
        <time>2014-03-26T09:04:10Z</time>
      </trkpt>
      <trkpt lat="45.47584" lon="6.95684">
        <ele>1946.81</ele>
        <time>2014-03-26T09:04:22Z</time>
      </trkpt>
      <trkpt lat="45.47583" lon="6.95687">
        <ele>1946.81</ele>
        <time>2014-03-26T09:04:26Z</time>
      </trkpt>
      <trkpt lat="45.47577" lon="6.95697">
        <ele>1947.29</ele>
        <time>2014-03-26T09:04:39Z</time>
      </trkpt>
      <trkpt lat="45.47571" lon="6.95707">
        <ele>1948.25</ele>
        <time>2014-03-26T09:04:54Z</time>
      </trkpt>
      <trkpt lat="45.47566" lon="6.95717">
        <ele>1948.25</ele>
        <time>2014-03-26T09:05:08Z</time>
      </trkpt>
      <trkpt lat="45.47562" lon="6.95725">
        <ele>1949.69</ele>
        <time>2014-03-26T09:05:19Z</time>
      </trkpt>
      <trkpt lat="45.47558" lon="6.95732">
        <ele>1951.13</ele>
        <time>2014-03-26T09:05:27Z</time>
      </trkpt>
      <trkpt lat="45.47558" lon="6.95735">
        <ele>1950.65</ele>
        <time>2014-03-26T09:05:30Z</time>
      </trkpt>
      <trkpt lat="45.47562" lon="6.9574">
        <ele>1952.09</ele>
        <time>2014-03-26T09:05:43Z</time>
      </trkpt>
      <trkpt lat="45.47562" lon="6.95742">
        <ele>1953.06</ele>
        <time>2014-03-26T09:06:06Z</time>
      </trkpt>
      <trkpt lat="45.47563" lon="6.95745">
        <ele>1951.61</ele>
        <time>2014-03-26T09:06:21Z</time>
      </trkpt>
      <trkpt lat="45.47561" lon="6.95742">
        <ele>1951.61</ele>
        <time>2014-03-26T09:06:47Z</time>
      </trkpt>
      <trkpt lat="45.47564" lon="6.95739">
        <ele>1952.57</ele>
        <time>2014-03-26T09:07:10Z</time>
      </trkpt>
      <trkpt lat="45.47563" lon="6.95741">
        <ele>1955.46</ele>
        <time>2014-03-26T09:07:24Z</time>
      </trkpt>
      <trkpt lat="45.47562" lon="6.95741">
        <ele>1954.98</ele>
        <time>2014-03-26T09:07:47Z</time>
      </trkpt>
      <trkpt lat="45.47563" lon="6.9574">
        <ele>1954.98</ele>
        <time>2014-03-26T09:08:09Z</time>
      </trkpt>
      <trkpt lat="45.4757" lon="6.95735">
        <ele>1954.98</ele>
        <time>2014-03-26T09:08:21Z</time>
      </trkpt>
      <trkpt lat="45.47578" lon="6.95728">
        <ele>1956.42</ele>
        <time>2014-03-26T09:08:33Z</time>
      </trkpt>
      <trkpt lat="45.47584" lon="6.95721">
        <ele>1957.86</ele>
        <time>2014-03-26T09:08:45Z</time>
      </trkpt>
      <trkpt lat="45.47592" lon="6.95716">
        <ele>1958.82</ele>
        <time>2014-03-26T09:08:57Z</time>
      </trkpt>
      <trkpt lat="45.47598" lon="6.95709">
        <ele>1959.78</ele>
        <time>2014-03-26T09:09:09Z</time>
      </trkpt>
      <trkpt lat="45.47607" lon="6.95703">
        <ele>1960.75</ele>
        <time>2014-03-26T09:09:22Z</time>
      </trkpt>
      <trkpt lat="45.47616" lon="6.95698">
        <ele>1961.71</ele>
        <time>2014-03-26T09:09:35Z</time>
      </trkpt>
      <trkpt lat="45.47624" lon="6.95694">
        <ele>1962.67</ele>
        <time>2014-03-26T09:09:49Z</time>
      </trkpt>
      <trkpt lat="45.47631" lon="6.9569">
        <ele>1962.67</ele>
        <time>2014-03-26T09:10:01Z</time>
      </trkpt>
      <trkpt lat="45.47632" lon="6.95689">
        <ele>1963.15</ele>
        <time>2014-03-26T09:10:16Z</time>
      </trkpt>
      <trkpt lat="45.47636" lon="6.95688">
        <ele>1962.67</ele>
        <time>2014-03-26T09:10:32Z</time>
      </trkpt>
      <trkpt lat="45.47643" lon="6.95684">
        <ele>1963.63</ele>
        <time>2014-03-26T09:10:45Z</time>
      </trkpt>
      <trkpt lat="45.47652" lon="6.95681">
        <ele>1964.59</ele>
        <time>2014-03-26T09:10:58Z</time>
      </trkpt>
      <trkpt lat="45.47652" lon="6.9568">
        <ele>1964.59</ele>
        <time>2014-03-26T09:10:59Z</time>
      </trkpt>
      <trkpt lat="45.47662" lon="6.95673">
        <ele>1965.07</ele>
        <time>2014-03-26T09:11:13Z</time>
      </trkpt>
      <trkpt lat="45.47669" lon="6.95669">
        <ele>1966.99</ele>
        <time>2014-03-26T09:11:25Z</time>
      </trkpt>
      <trkpt lat="45.47677" lon="6.95662">
        <ele>1969.4</ele>
        <time>2014-03-26T09:11:38Z</time>
      </trkpt>
      <trkpt lat="45.47686" lon="6.95656">
        <ele>1970.36</ele>
        <time>2014-03-26T09:11:52Z</time>
      </trkpt>
      <trkpt lat="45.47693" lon="6.95648">
        <ele>1970.84</ele>
        <time>2014-03-26T09:12:05Z</time>
      </trkpt>
      <trkpt lat="45.47701" lon="6.95643">
        <ele>1972.76</ele>
        <time>2014-03-26T09:12:18Z</time>
      </trkpt>
      <trkpt lat="45.47709" lon="6.95639">
        <ele>1973.72</ele>
        <time>2014-03-26T09:12:30Z</time>
      </trkpt>
      <trkpt lat="45.47717" lon="6.95633">
        <ele>1974.2</ele>
        <time>2014-03-26T09:12:44Z</time>
      </trkpt>
      <trkpt lat="45.47723" lon="6.95631">
        <ele>1975.17</ele>
        <time>2014-03-26T09:12:55Z</time>
      </trkpt>
      <trkpt lat="45.47732" lon="6.95629">
        <ele>1976.61</ele>
        <time>2014-03-26T09:13:09Z</time>
      </trkpt>
      <trkpt lat="45.47741" lon="6.95626">
        <ele>1977.57</ele>
        <time>2014-03-26T09:13:25Z</time>
      </trkpt>
      <trkpt lat="45.47748" lon="6.95624">
        <ele>1979.01</ele>
        <time>2014-03-26T09:13:37Z</time>
      </trkpt>
      <trkpt lat="45.47747" lon="6.95626">
        <ele>1979.01</ele>
        <time>2014-03-26T09:13:54Z</time>
      </trkpt>
      <trkpt lat="45.47748" lon="6.95624">
        <ele>1977.57</ele>
        <time>2014-03-26T09:14:14Z</time>
      </trkpt>
      <trkpt lat="45.47747" lon="6.95624">
        <ele>1976.61</ele>
        <time>2014-03-26T09:14:39Z</time>
      </trkpt>
      <trkpt lat="45.47748" lon="6.95626">
        <ele>1977.57</ele>
        <time>2014-03-26T09:15:08Z</time>
      </trkpt>
      <trkpt lat="45.47749" lon="6.95625">
        <ele>1977.57</ele>
        <time>2014-03-26T09:15:30Z</time>
      </trkpt>
      <trkpt lat="45.47748" lon="6.95626">
        <ele>1978.53</ele>
        <time>2014-03-26T09:15:46Z</time>
      </trkpt>
      <trkpt lat="45.47748" lon="6.95624">
        <ele>1976.61</ele>
        <time>2014-03-26T09:16:10Z</time>
      </trkpt>
      <trkpt lat="45.47748" lon="6.95623">
        <ele>1978.05</ele>
        <time>2014-03-26T09:16:25Z</time>
      </trkpt>
      <trkpt lat="45.47748" lon="6.95624">
        <ele>1978.05</ele>
        <time>2014-03-26T09:16:47Z</time>
      </trkpt>
      <trkpt lat="45.47748" lon="6.95623">
        <ele>1978.05</ele>
        <time>2014-03-26T09:17:21Z</time>
      </trkpt>
      <trkpt lat="45.47748" lon="6.95623">
        <ele>1979.01</ele>
        <time>2014-03-26T09:17:43Z</time>
      </trkpt>
      <trkpt lat="45.47761" lon="6.95623">
        <ele>1980.45</ele>
        <time>2014-03-26T09:17:56Z</time>
      </trkpt>
      <trkpt lat="45.47772" lon="6.95617">
        <ele>1980.45</ele>
        <time>2014-03-26T09:18:11Z</time>
      </trkpt>
      <trkpt lat="45.4778" lon="6.95616">
        <ele>1980.45</ele>
        <time>2014-03-26T09:18:21Z</time>
      </trkpt>
      <trkpt lat="45.47789" lon="6.95614">
        <ele>1981.41</ele>
        <time>2014-03-26T09:18:36Z</time>
      </trkpt>
      <trkpt lat="45.47793" lon="6.9561">
        <ele>1981.9</ele>
        <time>2014-03-26T09:18:50Z</time>
      </trkpt>
      <trkpt lat="45.47801" lon="6.95609">
        <ele>1982.38</ele>
        <time>2014-03-26T09:19:06Z</time>
      </trkpt>
      <trkpt lat="45.4781" lon="6.95603">
        <ele>1982.38</ele>
        <time>2014-03-26T09:19:21Z</time>
      </trkpt>
      <trkpt lat="45.47817" lon="6.95595">
        <ele>1981.41</ele>
        <time>2014-03-26T09:19:35Z</time>
      </trkpt>
      <trkpt lat="45.47823" lon="6.95587">
        <ele>1983.34</ele>
        <time>2014-03-26T09:19:47Z</time>
      </trkpt>
      <trkpt lat="45.4783" lon="6.95583">
        <ele>1983.34</ele>
        <time>2014-03-26T09:20:00Z</time>
      </trkpt>
      <trkpt lat="45.47836" lon="6.95578">
        <ele>1983.34</ele>
        <time>2014-03-26T09:20:09Z</time>
      </trkpt>
      <trkpt lat="45.47842" lon="6.95571">
        <ele>1984.78</ele>
        <time>2014-03-26T09:20:22Z</time>
      </trkpt>
      <trkpt lat="45.47849" lon="6.95565">
        <ele>1986.7</ele>
        <time>2014-03-26T09:20:35Z</time>
      </trkpt>
      <trkpt lat="45.47857" lon="6.95557">
        <ele>1987.66</ele>
        <time>2014-03-26T09:20:51Z</time>
      </trkpt>
      <trkpt lat="45.47864" lon="6.95549">
        <ele>1989.1</ele>
        <time>2014-03-26T09:21:04Z</time>
      </trkpt>
      <trkpt lat="45.47869" lon="6.95539">
        <ele>1989.59</ele>
        <time>2014-03-26T09:21:18Z</time>
      </trkpt>
      <trkpt lat="45.47874" lon="6.95529">
        <ele>1989.59</ele>
        <time>2014-03-26T09:21:31Z</time>
      </trkpt>
      <trkpt lat="45.47879" lon="6.9552">
        <ele>1990.55</ele>
        <time>2014-03-26T09:21:45Z</time>
      </trkpt>
      <trkpt lat="45.47883" lon="6.95512">
        <ele>1991.99</ele>
        <time>2014-03-26T09:21:57Z</time>
      </trkpt>
      <trkpt lat="45.47884" lon="6.9551">
        <ele>1991.99</ele>
        <time>2014-03-26T09:22:00Z</time>
      </trkpt>
      <trkpt lat="45.47888" lon="6.95501">
        <ele>1993.43</ele>
        <time>2014-03-26T09:22:13Z</time>
      </trkpt>
      <trkpt lat="45.47891" lon="6.95491">
        <ele>1993.91</ele>
        <time>2014-03-26T09:22:25Z</time>
      </trkpt>
      <trkpt lat="45.47893" lon="6.95482">
        <ele>1995.35</ele>
        <time>2014-03-26T09:22:38Z</time>
      </trkpt>
      <trkpt lat="45.47896" lon="6.9547">
        <ele>1996.32</ele>
        <time>2014-03-26T09:22:51Z</time>
      </trkpt>
      <trkpt lat="45.47899" lon="6.95458">
        <ele>1997.76</ele>
        <time>2014-03-26T09:23:04Z</time>
      </trkpt>
      <trkpt lat="45.479" lon="6.95447">
        <ele>1999.68</ele>
        <time>2014-03-26T09:23:18Z</time>
      </trkpt>
      <trkpt lat="45.47904" lon="6.95433">
        <ele>1999.68</ele>
        <time>2014-03-26T09:23:33Z</time>
      </trkpt>
      <trkpt lat="45.47908" lon="6.95424">
        <ele>1999.68</ele>
        <time>2014-03-26T09:23:45Z</time>
      </trkpt>
      <trkpt lat="45.47914" lon="6.95416">
        <ele>2000.64</ele>
        <time>2014-03-26T09:23:58Z</time>
      </trkpt>
      <trkpt lat="45.47922" lon="6.95417">
        <ele>2001.6</ele>
        <time>2014-03-26T09:24:10Z</time>
      </trkpt>
      <trkpt lat="45.4792" lon="6.95426">
        <ele>2001.12</ele>
        <time>2014-03-26T09:24:23Z</time>
      </trkpt>
      <trkpt lat="45.47918" lon="6.95429">
        <ele>2000.16</ele>
        <time>2014-03-26T09:24:34Z</time>
      </trkpt>
      <trkpt lat="45.47912" lon="6.95445">
        <ele>2001.6</ele>
        <time>2014-03-26T09:24:50Z</time>
      </trkpt>
      <trkpt lat="45.4791" lon="6.95459">
        <ele>2002.56</ele>
        <time>2014-03-26T09:25:04Z</time>
      </trkpt>
      <trkpt lat="45.47911" lon="6.9547">
        <ele>2004.01</ele>
        <time>2014-03-26T09:25:16Z</time>
      </trkpt>
      <trkpt lat="45.47912" lon="6.9548">
        <ele>2004.97</ele>
        <time>2014-03-26T09:25:27Z</time>
      </trkpt>
      <trkpt lat="45.47914" lon="6.95491">
        <ele>2005.45</ele>
        <time>2014-03-26T09:25:40Z</time>
      </trkpt>
      <trkpt lat="45.47913" lon="6.95501">
        <ele>2006.89</ele>
        <time>2014-03-26T09:25:53Z</time>
      </trkpt>
      <trkpt lat="45.47913" lon="6.95508">
        <ele>2008.33</ele>
        <time>2014-03-26T09:26:00Z</time>
      </trkpt>
      <trkpt lat="45.47912" lon="6.95521">
        <ele>2008.33</ele>
        <time>2014-03-26T09:26:13Z</time>
      </trkpt>
      <trkpt lat="45.4791" lon="6.95533">
        <ele>2009.29</ele>
        <time>2014-03-26T09:26:27Z</time>
      </trkpt>
      <trkpt lat="45.47907" lon="6.95545">
        <ele>2010.73</ele>
        <time>2014-03-26T09:26:41Z</time>
      </trkpt>
      <trkpt lat="45.47903" lon="6.95556">
        <ele>2012.18</ele>
        <time>2014-03-26T09:26:55Z</time>
      </trkpt>
      <trkpt lat="45.47899" lon="6.95566">
        <ele>2013.14</ele>
        <time>2014-03-26T09:27:09Z</time>
      </trkpt>
      <trkpt lat="45.47895" lon="6.95579">
        <ele>2014.1</ele>
        <time>2014-03-26T09:27:23Z</time>
      </trkpt>
      <trkpt lat="45.47893" lon="6.95589">
        <ele>2014.1</ele>
        <time>2014-03-26T09:27:35Z</time>
      </trkpt>
      <trkpt lat="45.47892" lon="6.95599">
        <ele>2014.58</ele>
        <time>2014-03-26T09:27:47Z</time>
      </trkpt>
      <trkpt lat="45.47891" lon="6.95606">
        <ele>2014.58</ele>
        <time>2014-03-26T09:27:59Z</time>
      </trkpt>
      <trkpt lat="45.47891" lon="6.95605">
        <ele>2013.62</ele>
        <time>2014-03-26T09:28:23Z</time>
      </trkpt>
      <trkpt lat="45.4789" lon="6.95606">
        <ele>2013.14</ele>
        <time>2014-03-26T09:29:00Z</time>
      </trkpt>
      <trkpt lat="45.47891" lon="6.95606">
        <ele>2013.62</ele>
        <time>2014-03-26T09:29:33Z</time>
      </trkpt>
      <trkpt lat="45.47891" lon="6.95605">
        <ele>2014.58</ele>
        <time>2014-03-26T09:30:00Z</time>
      </trkpt>
      <trkpt lat="45.47892" lon="6.95607">
        <ele>2013.62</ele>
        <time>2014-03-26T09:30:20Z</time>
      </trkpt>
      <trkpt lat="45.47893" lon="6.95609">
        <ele>2010.73</ele>
        <time>2014-03-26T09:30:46Z</time>
      </trkpt>
      <trkpt lat="45.47891" lon="6.95608">
        <ele>2009.77</ele>
        <time>2014-03-26T09:31:11Z</time>
      </trkpt>
      <trkpt lat="45.47891" lon="6.95608">
        <ele>2011.7</ele>
        <time>2014-03-26T09:31:35Z</time>
      </trkpt>
      <trkpt lat="45.47892" lon="6.95609">
        <ele>2010.73</ele>
        <time>2014-03-26T09:32:00Z</time>
      </trkpt>
      <trkpt lat="45.47888" lon="6.95614">
        <ele>2013.62</ele>
        <time>2014-03-26T09:32:13Z</time>
      </trkpt>
      <trkpt lat="45.47884" lon="6.95623">
        <ele>2016.5</ele>
        <time>2014-03-26T09:32:25Z</time>
      </trkpt>
      <trkpt lat="45.4788" lon="6.95633">
        <ele>2019.39</ele>
        <time>2014-03-26T09:32:39Z</time>
      </trkpt>
      <trkpt lat="45.47876" lon="6.95641">
        <ele>2021.31</ele>
        <time>2014-03-26T09:32:54Z</time>
      </trkpt>
      <trkpt lat="45.47869" lon="6.9565">
        <ele>2023.23</ele>
        <time>2014-03-26T09:33:07Z</time>
      </trkpt>
      <trkpt lat="45.47867" lon="6.95656">
        <ele>2023.71</ele>
        <time>2014-03-26T09:33:21Z</time>
      </trkpt>
      <trkpt lat="45.47871" lon="6.95653">
        <ele>2024.19</ele>
        <time>2014-03-26T09:33:33Z</time>
      </trkpt>
      <trkpt lat="45.47875" lon="6.95653">
        <ele>2026.12</ele>
        <time>2014-03-26T09:33:46Z</time>
      </trkpt>
      <trkpt lat="45.47879" lon="6.9565">
        <ele>2027.08</ele>
        <time>2014-03-26T09:33:58Z</time>
      </trkpt>
      <trkpt lat="45.47883" lon="6.95648">
        <ele>2028.52</ele>
        <time>2014-03-26T09:34:10Z</time>
      </trkpt>
      <trkpt lat="45.47887" lon="6.95645">
        <ele>2029</ele>
        <time>2014-03-26T09:34:23Z</time>
      </trkpt>
      <trkpt lat="45.47893" lon="6.9564">
        <ele>2029.96</ele>
        <time>2014-03-26T09:34:38Z</time>
      </trkpt>
      <trkpt lat="45.47899" lon="6.95635">
        <ele>2029.96</ele>
        <time>2014-03-26T09:34:51Z</time>
      </trkpt>
      <trkpt lat="45.47903" lon="6.9563">
        <ele>2031.88</ele>
        <time>2014-03-26T09:35:13Z</time>
      </trkpt>
      <trkpt lat="45.47908" lon="6.95625">
        <ele>2033.81</ele>
        <time>2014-03-26T09:35:26Z</time>
      </trkpt>
      <trkpt lat="45.47913" lon="6.95618">
        <ele>2035.73</ele>
        <time>2014-03-26T09:35:39Z</time>
      </trkpt>
      <trkpt lat="45.47917" lon="6.95615">
        <ele>2037.65</ele>
        <time>2014-03-26T09:35:52Z</time>
      </trkpt>
      <trkpt lat="45.4792" lon="6.95611">
        <ele>2039.09</ele>
        <time>2014-03-26T09:36:05Z</time>
      </trkpt>
      <trkpt lat="45.47922" lon="6.95606">
        <ele>2039.57</ele>
        <time>2014-03-26T09:36:17Z</time>
      </trkpt>
      <trkpt lat="45.47927" lon="6.95601">
        <ele>2041.02</ele>
        <time>2014-03-26T09:36:29Z</time>
      </trkpt>
      <trkpt lat="45.47933" lon="6.95596">
        <ele>2042.46</ele>
        <time>2014-03-26T09:36:44Z</time>
      </trkpt>
      <trkpt lat="45.47937" lon="6.95594">
        <ele>2042.94</ele>
        <time>2014-03-26T09:36:59Z</time>
      </trkpt>
      <trkpt lat="45.47938" lon="6.95592">
        <ele>2043.9</ele>
        <time>2014-03-26T09:37:14Z</time>
      </trkpt>
      <trkpt lat="45.47944" lon="6.95586">
        <ele>2042.94</ele>
        <time>2014-03-26T09:37:30Z</time>
      </trkpt>
      <trkpt lat="45.47949" lon="6.95577">
        <ele>2043.9</ele>
        <time>2014-03-26T09:37:44Z</time>
      </trkpt>
      <trkpt lat="45.47951" lon="6.95573">
        <ele>2044.38</ele>
        <time>2014-03-26T09:37:57Z</time>
      </trkpt>
      <trkpt lat="45.47955" lon="6.95568">
        <ele>2045.82</ele>
        <time>2014-03-26T09:38:14Z</time>
      </trkpt>
      <trkpt lat="45.47959" lon="6.9556">
        <ele>2047.75</ele>
        <time>2014-03-26T09:38:28Z</time>
      </trkpt>
      <trkpt lat="45.47965" lon="6.95554">
        <ele>2050.15</ele>
        <time>2014-03-26T09:38:43Z</time>
      </trkpt>
      <trkpt lat="45.47971" lon="6.95547">
        <ele>2051.11</ele>
        <time>2014-03-26T09:38:57Z</time>
      </trkpt>
      <trkpt lat="45.47979" lon="6.95542">
        <ele>2051.59</ele>
        <time>2014-03-26T09:39:15Z</time>
      </trkpt>
      <trkpt lat="45.47985" lon="6.95536">
        <ele>2051.11</ele>
        <time>2014-03-26T09:39:28Z</time>
      </trkpt>
      <trkpt lat="45.47992" lon="6.95532">
        <ele>2051.11</ele>
        <time>2014-03-26T09:39:43Z</time>
      </trkpt>
      <trkpt lat="45.47995" lon="6.9553">
        <ele>2052.55</ele>
        <time>2014-03-26T09:39:55Z</time>
      </trkpt>
      <trkpt lat="45.48" lon="6.95529">
        <ele>2053.03</ele>
        <time>2014-03-26T09:40:07Z</time>
      </trkpt>
      <trkpt lat="45.48006" lon="6.95522">
        <ele>2053.99</ele>
        <time>2014-03-26T09:40:25Z</time>
      </trkpt>
      <trkpt lat="45.48013" lon="6.95518">
        <ele>2054.47</ele>
        <time>2014-03-26T09:40:41Z</time>
      </trkpt>
      <trkpt lat="45.48019" lon="6.95515">
        <ele>2054.47</ele>
        <time>2014-03-26T09:40:55Z</time>
      </trkpt>
      <trkpt lat="45.48024" lon="6.95513">
        <ele>2055.92</ele>
        <time>2014-03-26T09:41:07Z</time>
      </trkpt>
      <trkpt lat="45.48028" lon="6.95511">
        <ele>2056.88</ele>
        <time>2014-03-26T09:41:20Z</time>
      </trkpt>
      <trkpt lat="45.48032" lon="6.95509">
        <ele>2057.84</ele>
        <time>2014-03-26T09:41:32Z</time>
      </trkpt>
      <trkpt lat="45.48037" lon="6.95508">
        <ele>2057.84</ele>
        <time>2014-03-26T09:41:45Z</time>
      </trkpt>
      <trkpt lat="45.48044" lon="6.95506">
        <ele>2058.32</ele>
        <time>2014-03-26T09:42:00Z</time>
      </trkpt>
      <trkpt lat="45.48049" lon="6.95507">
        <ele>2060.24</ele>
        <time>2014-03-26T09:42:12Z</time>
      </trkpt>
      <trkpt lat="45.48054" lon="6.95504">
        <ele>2062.65</ele>
        <time>2014-03-26T09:42:26Z</time>
      </trkpt>
      <trkpt lat="45.48059" lon="6.95504">
        <ele>2063.61</ele>
        <time>2014-03-26T09:42:42Z</time>
      </trkpt>
      <trkpt lat="45.48064" lon="6.95502">
        <ele>2065.53</ele>
        <time>2014-03-26T09:42:52Z</time>
      </trkpt>
      <trkpt lat="45.48069" lon="6.95501">
        <ele>2066.97</ele>
        <time>2014-03-26T09:43:04Z</time>
      </trkpt>
      <trkpt lat="45.48074" lon="6.95499">
        <ele>2067.45</ele>
        <time>2014-03-26T09:43:17Z</time>
      </trkpt>
      <trkpt lat="45.48079" lon="6.95497">
        <ele>2068.89</ele>
        <time>2014-03-26T09:43:29Z</time>
      </trkpt>
      <trkpt lat="45.48084" lon="6.95496">
        <ele>2069.86</ele>
        <time>2014-03-26T09:43:41Z</time>
      </trkpt>
      <trkpt lat="45.48089" lon="6.95495">
        <ele>2070.82</ele>
        <time>2014-03-26T09:43:53Z</time>
      </trkpt>
      <trkpt lat="45.48094" lon="6.95494">
        <ele>2073.22</ele>
        <time>2014-03-26T09:44:06Z</time>
      </trkpt>
      <trkpt lat="45.48099" lon="6.95493">
        <ele>2073.7</ele>
        <time>2014-03-26T09:44:21Z</time>
      </trkpt>
      <trkpt lat="45.48103" lon="6.95492">
        <ele>2074.18</ele>
        <time>2014-03-26T09:44:32Z</time>
      </trkpt>
      <trkpt lat="45.48108" lon="6.95491">
        <ele>2075.62</ele>
        <time>2014-03-26T09:44:44Z</time>
      </trkpt>
      <trkpt lat="45.48113" lon="6.9549">
        <ele>2076.59</ele>
        <time>2014-03-26T09:44:57Z</time>
      </trkpt>
      <trkpt lat="45.48118" lon="6.9549">
        <ele>2078.51</ele>
        <time>2014-03-26T09:45:10Z</time>
      </trkpt>
      <trkpt lat="45.48123" lon="6.95489">
        <ele>2079.47</ele>
        <time>2014-03-26T09:45:22Z</time>
      </trkpt>
      <trkpt lat="45.48128" lon="6.95487">
        <ele>2081.87</ele>
        <time>2014-03-26T09:45:36Z</time>
      </trkpt>
      <trkpt lat="45.48133" lon="6.95486">
        <ele>2083.31</ele>
        <time>2014-03-26T09:45:47Z</time>
      </trkpt>
      <trkpt lat="45.48139" lon="6.95484">
        <ele>2084.28</ele>
        <time>2014-03-26T09:46:00Z</time>
      </trkpt>
      <trkpt lat="45.48141" lon="6.95484">
        <ele>2084.76</ele>
        <time>2014-03-26T09:46:16Z</time>
      </trkpt>
      <trkpt lat="45.48146" lon="6.95484">
        <ele>2084.76</ele>
        <time>2014-03-26T09:46:32Z</time>
      </trkpt>
      <trkpt lat="45.48151" lon="6.95489">
        <ele>2085.72</ele>
        <time>2014-03-26T09:46:44Z</time>
      </trkpt>
      <trkpt lat="45.48156" lon="6.95497">
        <ele>2087.64</ele>
        <time>2014-03-26T09:46:57Z</time>
      </trkpt>
      <trkpt lat="45.48159" lon="6.95502">
        <ele>2088.6</ele>
        <time>2014-03-26T09:47:09Z</time>
      </trkpt>
      <trkpt lat="45.48163" lon="6.95507">
        <ele>2091</ele>
        <time>2014-03-26T09:47:22Z</time>
      </trkpt>
      <trkpt lat="45.48166" lon="6.95512">
        <ele>2091.97</ele>
        <time>2014-03-26T09:47:34Z</time>
      </trkpt>
      <trkpt lat="45.48166" lon="6.95512">
        <ele>2091</ele>
        <time>2014-03-26T09:47:57Z</time>
      </trkpt>
      <trkpt lat="45.48165" lon="6.95511">
        <ele>2092.45</ele>
        <time>2014-03-26T09:48:20Z</time>
      </trkpt>
      <trkpt lat="45.48165" lon="6.95511">
        <ele>2090.04</ele>
        <time>2014-03-26T09:48:49Z</time>
      </trkpt>
      <trkpt lat="45.48168" lon="6.95514">
        <ele>2091.49</ele>
        <time>2014-03-26T09:49:08Z</time>
      </trkpt>
      <trkpt lat="45.48169" lon="6.95515">
        <ele>2091.49</ele>
        <time>2014-03-26T09:49:09Z</time>
      </trkpt>
      <trkpt lat="45.48175" lon="6.9552">
        <ele>2091.97</ele>
        <time>2014-03-26T09:49:22Z</time>
      </trkpt>
      <trkpt lat="45.48179" lon="6.95526">
        <ele>2094.37</ele>
        <time>2014-03-26T09:49:35Z</time>
      </trkpt>
      <trkpt lat="45.48185" lon="6.9553">
        <ele>2096.29</ele>
        <time>2014-03-26T09:49:48Z</time>
      </trkpt>
      <trkpt lat="45.48189" lon="6.95536">
        <ele>2098.21</ele>
        <time>2014-03-26T09:49:59Z</time>
      </trkpt>
      <trkpt lat="45.48194" lon="6.95543">
        <ele>2099.66</ele>
        <time>2014-03-26T09:50:11Z</time>
      </trkpt>
      <trkpt lat="45.48198" lon="6.95549">
        <ele>2101.58</ele>
        <time>2014-03-26T09:50:23Z</time>
      </trkpt>
      <trkpt lat="45.48201" lon="6.95559">
        <ele>2102.54</ele>
        <time>2014-03-26T09:50:37Z</time>
      </trkpt>
      <trkpt lat="45.48205" lon="6.95564">
        <ele>2103.98</ele>
        <time>2014-03-26T09:50:48Z</time>
      </trkpt>
      <trkpt lat="45.48209" lon="6.95571">
        <ele>2105.42</ele>
        <time>2014-03-26T09:51:01Z</time>
      </trkpt>
      <trkpt lat="45.48211" lon="6.95578">
        <ele>2106.39</ele>
        <time>2014-03-26T09:51:13Z</time>
      </trkpt>
      <trkpt lat="45.48214" lon="6.95589">
        <ele>2106.39</ele>
        <time>2014-03-26T09:51:28Z</time>
      </trkpt>
      <trkpt lat="45.48217" lon="6.95594">
        <ele>2109.27</ele>
        <time>2014-03-26T09:51:41Z</time>
      </trkpt>
      <trkpt lat="45.48215" lon="6.95597">
        <ele>2107.83</ele>
        <time>2014-03-26T09:52:05Z</time>
      </trkpt>
      <trkpt lat="45.48216" lon="6.95598">
        <ele>2107.83</ele>
        <time>2014-03-26T09:52:22Z</time>
      </trkpt>
      <trkpt lat="45.48216" lon="6.95598">
        <ele>2107.83</ele>
        <time>2014-03-26T09:52:53Z</time>
      </trkpt>
      <trkpt lat="45.48217" lon="6.95595">
        <ele>2106.87</ele>
        <time>2014-03-26T09:53:19Z</time>
      </trkpt>
      <trkpt lat="45.48216" lon="6.95592">
        <ele>2109.27</ele>
        <time>2014-03-26T09:53:42Z</time>
      </trkpt>
      <trkpt lat="45.48216" lon="6.95593">
        <ele>2109.27</ele>
        <time>2014-03-26T09:54:09Z</time>
      </trkpt>
      <trkpt lat="45.48217" lon="6.95595">
        <ele>2109.27</ele>
        <time>2014-03-26T09:54:27Z</time>
      </trkpt>
      <trkpt lat="45.48217" lon="6.95595">
        <ele>2108.79</ele>
        <time>2014-03-26T09:54:46Z</time>
      </trkpt>
      <trkpt lat="45.48217" lon="6.95595">
        <ele>2105.42</ele>
        <time>2014-03-26T09:55:15Z</time>
      </trkpt>
      <trkpt lat="45.48216" lon="6.95597">
        <ele>2104.94</ele>
        <time>2014-03-26T09:55:46Z</time>
      </trkpt>
      <trkpt lat="45.48217" lon="6.95595">
        <ele>2105.42</ele>
        <time>2014-03-26T09:56:24Z</time>
      </trkpt>
      <trkpt lat="45.48214" lon="6.95595">
        <ele>2108.79</ele>
        <time>2014-03-26T09:56:52Z</time>
      </trkpt>
      <trkpt lat="45.48217" lon="6.95594">
        <ele>2106.39</ele>
        <time>2014-03-26T09:57:31Z</time>
      </trkpt>
      <trkpt lat="45.48215" lon="6.95599">
        <ele>2107.35</ele>
        <time>2014-03-26T09:58:06Z</time>
      </trkpt>
      <trkpt lat="45.48216" lon="6.95598">
        <ele>2108.79</ele>
        <time>2014-03-26T09:58:31Z</time>
      </trkpt>
      <trkpt lat="45.48217" lon="6.95596">
        <ele>2109.27</ele>
        <time>2014-03-26T09:58:59Z</time>
      </trkpt>
      <trkpt lat="45.48217" lon="6.95595">
        <ele>2106.87</ele>
        <time>2014-03-26T09:59:29Z</time>
      </trkpt>
      <trkpt lat="45.48217" lon="6.95597">
        <ele>2105.91</ele>
        <time>2014-03-26T09:59:50Z</time>
      </trkpt>
      <trkpt lat="45.48222" lon="6.95606">
        <ele>2108.79</ele>
        <time>2014-03-26T10:00:03Z</time>
      </trkpt>
      <trkpt lat="45.48226" lon="6.95614">
        <ele>2112.15</ele>
        <time>2014-03-26T10:00:16Z</time>
      </trkpt>
      <trkpt lat="45.48231" lon="6.95623">
        <ele>2115.04</ele>
        <time>2014-03-26T10:00:32Z</time>
      </trkpt>
      <trkpt lat="45.48235" lon="6.9563">
        <ele>2116.48</ele>
        <time>2014-03-26T10:00:45Z</time>
      </trkpt>
      <trkpt lat="45.48241" lon="6.95642">
        <ele>2118.4</ele>
        <time>2014-03-26T10:01:00Z</time>
      </trkpt>
      <trkpt lat="45.48246" lon="6.95652">
        <ele>2119.36</ele>
        <time>2014-03-26T10:01:13Z</time>
      </trkpt>
      <trkpt lat="45.4825" lon="6.95663">
        <ele>2120.81</ele>
        <time>2014-03-26T10:01:26Z</time>
      </trkpt>
      <trkpt lat="45.48254" lon="6.95674">
        <ele>2121.77</ele>
        <time>2014-03-26T10:01:40Z</time>
      </trkpt>
      <trkpt lat="45.48256" lon="6.95685">
        <ele>2122.73</ele>
        <time>2014-03-26T10:01:54Z</time>
      </trkpt>
      <trkpt lat="45.48259" lon="6.95695">
        <ele>2123.21</ele>
        <time>2014-03-26T10:02:06Z</time>
      </trkpt>
      <trkpt lat="45.48264" lon="6.95702">
        <ele>2124.17</ele>
        <time>2014-03-26T10:02:19Z</time>
      </trkpt>
      <trkpt lat="45.48268" lon="6.95712">
        <ele>2126.09</ele>
        <time>2014-03-26T10:02:34Z</time>
      </trkpt>
      <trkpt lat="45.4827" lon="6.9572">
        <ele>2127.53</ele>
        <time>2014-03-26T10:02:47Z</time>
      </trkpt>
      <trkpt lat="45.48272" lon="6.95732">
        <ele>2127.05</ele>
        <time>2014-03-26T10:03:00Z</time>
      </trkpt>
      <trkpt lat="45.48272" lon="6.95739">
        <ele>2127.05</ele>
        <time>2014-03-26T10:03:13Z</time>
      </trkpt>
      <trkpt lat="45.48273" lon="6.95749">
        <ele>2128.02</ele>
        <time>2014-03-26T10:03:26Z</time>
      </trkpt>
      <trkpt lat="45.48274" lon="6.9576">
        <ele>2128.5</ele>
        <time>2014-03-26T10:03:39Z</time>
      </trkpt>
      <trkpt lat="45.48273" lon="6.95765">
        <ele>2129.46</ele>
        <time>2014-03-26T10:03:52Z</time>
      </trkpt>
      <trkpt lat="45.4827" lon="6.9577">
        <ele>2131.86</ele>
        <time>2014-03-26T10:04:05Z</time>
      </trkpt>
      <trkpt lat="45.48264" lon="6.95763">
        <ele>2133.3</ele>
        <time>2014-03-26T10:04:19Z</time>
      </trkpt>
      <trkpt lat="45.48259" lon="6.95758">
        <ele>2133.78</ele>
        <time>2014-03-26T10:04:34Z</time>
      </trkpt>
      <trkpt lat="45.48257" lon="6.95756">
        <ele>2135.23</ele>
        <time>2014-03-26T10:04:48Z</time>
      </trkpt>
      <trkpt lat="45.48257" lon="6.95759">
        <ele>2136.67</ele>
        <time>2014-03-26T10:05:01Z</time>
      </trkpt>
      <trkpt lat="45.48256" lon="6.95764">
        <ele>2137.15</ele>
        <time>2014-03-26T10:05:12Z</time>
      </trkpt>
      <trkpt lat="45.48255" lon="6.9577">
        <ele>2137.15</ele>
        <time>2014-03-26T10:05:25Z</time>
      </trkpt>
      <trkpt lat="45.48254" lon="6.95771">
        <ele>2138.59</ele>
        <time>2014-03-26T10:05:46Z</time>
      </trkpt>
      <trkpt lat="45.48249" lon="6.95767">
        <ele>2141.95</ele>
        <time>2014-03-26T10:06:13Z</time>
      </trkpt>
      <trkpt lat="45.4825" lon="6.95766">
        <ele>2144.36</ele>
        <time>2014-03-26T10:06:39Z</time>
      </trkpt>
      <trkpt lat="45.48253" lon="6.95768">
        <ele>2144.84</ele>
        <time>2014-03-26T10:06:58Z</time>
      </trkpt>
      <trkpt lat="45.48254" lon="6.95772">
        <ele>2142.44</ele>
        <time>2014-03-26T10:07:21Z</time>
      </trkpt>
      <trkpt lat="45.48252" lon="6.95775">
        <ele>2139.55</ele>
        <time>2014-03-26T10:07:31Z</time>
      </trkpt>
      <trkpt lat="45.48252" lon="6.95778">
        <ele>2140.51</ele>
        <time>2014-03-26T10:08:06Z</time>
      </trkpt>
      <trkpt lat="45.48254" lon="6.95776">
        <ele>2139.07</ele>
        <time>2014-03-26T10:08:20Z</time>
      </trkpt>
      <trkpt lat="45.48253" lon="6.95775">
        <ele>2138.59</ele>
        <time>2014-03-26T10:08:34Z</time>
      </trkpt>
      <trkpt lat="45.48249" lon="6.95779">
        <ele>2141.47</ele>
        <time>2014-03-26T10:09:01Z</time>
      </trkpt>
      <trkpt lat="45.48249" lon="6.95778">
        <ele>2141.47</ele>
        <time>2014-03-26T10:09:20Z</time>
      </trkpt>
      <trkpt lat="45.48253" lon="6.95775">
        <ele>2138.59</ele>
        <time>2014-03-26T10:09:51Z</time>
      </trkpt>
      <trkpt lat="45.48253" lon="6.95776">
        <ele>2139.07</ele>
        <time>2014-03-26T10:10:16Z</time>
      </trkpt>
      <trkpt lat="45.48254" lon="6.95778">
        <ele>2140.03</ele>
        <time>2014-03-26T10:10:32Z</time>
      </trkpt>
      <trkpt lat="45.48252" lon="6.95797">
        <ele>2141.95</ele>
        <time>2014-03-26T10:10:48Z</time>
      </trkpt>
      <trkpt lat="45.48252" lon="6.95812">
        <ele>2142.92</ele>
        <time>2014-03-26T10:11:03Z</time>
      </trkpt>
      <trkpt lat="45.48252" lon="6.95826">
        <ele>2143.4</ele>
        <time>2014-03-26T10:11:18Z</time>
      </trkpt>
      <trkpt lat="45.48252" lon="6.9584">
        <ele>2145.8</ele>
        <time>2014-03-26T10:11:32Z</time>
      </trkpt>
      <trkpt lat="45.48253" lon="6.95851">
        <ele>2146.76</ele>
        <time>2014-03-26T10:11:44Z</time>
      </trkpt>
      <trkpt lat="45.48254" lon="6.95856">
        <ele>2146.76</ele>
        <time>2014-03-26T10:11:49Z</time>
      </trkpt>
      <trkpt lat="45.48255" lon="6.9587">
        <ele>2148.2</ele>
        <time>2014-03-26T10:12:03Z</time>
      </trkpt>
      <trkpt lat="45.48258" lon="6.95882">
        <ele>2150.13</ele>
        <time>2014-03-26T10:12:16Z</time>
      </trkpt>
      <trkpt lat="45.4826" lon="6.95897">
        <ele>2152.05</ele>
        <time>2014-03-26T10:12:31Z</time>
      </trkpt>
      <trkpt lat="45.48263" lon="6.95911">
        <ele>2152.05</ele>
        <time>2014-03-26T10:12:45Z</time>
      </trkpt>
      <trkpt lat="45.48266" lon="6.95923">
        <ele>2154.45</ele>
        <time>2014-03-26T10:13:00Z</time>
      </trkpt>
      <trkpt lat="45.48269" lon="6.95937">
        <ele>2155.41</ele>
        <time>2014-03-26T10:13:13Z</time>
      </trkpt>
      <trkpt lat="45.48273" lon="6.95949">
        <ele>2156.37</ele>
        <time>2014-03-26T10:13:27Z</time>
      </trkpt>
      <trkpt lat="45.48277" lon="6.9596">
        <ele>2157.34</ele>
        <time>2014-03-26T10:13:44Z</time>
      </trkpt>
      <trkpt lat="45.48281" lon="6.95971">
        <ele>2158.3</ele>
        <time>2014-03-26T10:14:00Z</time>
      </trkpt>
      <trkpt lat="45.48284" lon="6.9598">
        <ele>2158.78</ele>
        <time>2014-03-26T10:14:14Z</time>
      </trkpt>
      <trkpt lat="45.48288" lon="6.95988">
        <ele>2160.7</ele>
        <time>2014-03-26T10:14:27Z</time>
      </trkpt>
      <trkpt lat="45.48292" lon="6.95995">
        <ele>2162.62</ele>
        <time>2014-03-26T10:14:39Z</time>
      </trkpt>
      <trkpt lat="45.48296" lon="6.96004">
        <ele>2162.62</ele>
        <time>2014-03-26T10:14:53Z</time>
      </trkpt>
      <trkpt lat="45.48299" lon="6.96013">
        <ele>2164.06</ele>
        <time>2014-03-26T10:15:05Z</time>
      </trkpt>
      <trkpt lat="45.48303" lon="6.96022">
        <ele>2163.58</ele>
        <time>2014-03-26T10:15:19Z</time>
      </trkpt>
      <trkpt lat="45.48307" lon="6.96031">
        <ele>2163.58</ele>
        <time>2014-03-26T10:15:35Z</time>
      </trkpt>
      <trkpt lat="45.48311" lon="6.96038">
        <ele>2164.55</ele>
        <time>2014-03-26T10:15:47Z</time>
      </trkpt>
      <trkpt lat="45.48315" lon="6.96044">
        <ele>2165.99</ele>
        <time>2014-03-26T10:16:01Z</time>
      </trkpt>
      <trkpt lat="45.48319" lon="6.96054">
        <ele>2166.95</ele>
        <time>2014-03-26T10:16:14Z</time>
      </trkpt>
      <trkpt lat="45.48325" lon="6.96061">
        <ele>2168.39</ele>
        <time>2014-03-26T10:16:30Z</time>
      </trkpt>
      <trkpt lat="45.48325" lon="6.96061">
        <ele>2168.87</ele>
        <time>2014-03-26T10:16:35Z</time>
      </trkpt>
      <trkpt lat="45.4833" lon="6.96065">
        <ele>2168.87</ele>
        <time>2014-03-26T10:16:48Z</time>
      </trkpt>
      <trkpt lat="45.48334" lon="6.96072">
        <ele>2168.87</ele>
        <time>2014-03-26T10:17:00Z</time>
      </trkpt>
      <trkpt lat="45.48335" lon="6.96073">
        <ele>2167.43</ele>
        <time>2014-03-26T10:17:19Z</time>
      </trkpt>
      <trkpt lat="45.48334" lon="6.96075">
        <ele>2165.03</ele>
        <time>2014-03-26T10:17:37Z</time>
      </trkpt>
      <trkpt lat="45.48333" lon="6.96074">
        <ele>2164.06</ele>
        <time>2014-03-26T10:18:03Z</time>
      </trkpt>
      <trkpt lat="45.48335" lon="6.96073">
        <ele>2165.99</ele>
        <time>2014-03-26T10:18:34Z</time>
      </trkpt>
      <trkpt lat="45.48335" lon="6.96073">
        <ele>2166.95</ele>
        <time>2014-03-26T10:18:55Z</time>
      </trkpt>
      <trkpt lat="45.48334" lon="6.96074">
        <ele>2166.95</ele>
        <time>2014-03-26T10:19:19Z</time>
      </trkpt>
      <trkpt lat="45.48334" lon="6.96075">
        <ele>2166.47</ele>
        <time>2014-03-26T10:19:40Z</time>
      </trkpt>
      <trkpt lat="45.48334" lon="6.96072">
        <ele>2167.91</ele>
        <time>2014-03-26T10:20:04Z</time>
      </trkpt>
      <trkpt lat="45.4834" lon="6.96075">
        <ele>2166.47</ele>
        <time>2014-03-26T10:20:23Z</time>
      </trkpt>
      <trkpt lat="45.48347" lon="6.9608">
        <ele>2166.95</ele>
        <time>2014-03-26T10:20:35Z</time>
      </trkpt>
      <trkpt lat="45.48351" lon="6.96085">
        <ele>2167.91</ele>
        <time>2014-03-26T10:20:47Z</time>
      </trkpt>
      <trkpt lat="45.48354" lon="6.96089">
        <ele>2169.35</ele>
        <time>2014-03-26T10:21:00Z</time>
      </trkpt>
      <trkpt lat="45.48357" lon="6.96093">
        <ele>2172.24</ele>
        <time>2014-03-26T10:21:14Z</time>
      </trkpt>
      <trkpt lat="45.48361" lon="6.96097">
        <ele>2174.64</ele>
        <time>2014-03-26T10:21:25Z</time>
      </trkpt>
      <trkpt lat="45.48364" lon="6.96104">
        <ele>2176.08</ele>
        <time>2014-03-26T10:21:37Z</time>
      </trkpt>
      <trkpt lat="45.48366" lon="6.96111">
        <ele>2178</ele>
        <time>2014-03-26T10:21:51Z</time>
      </trkpt>
      <trkpt lat="45.48369" lon="6.96115">
        <ele>2176.08</ele>
        <time>2014-03-26T10:22:07Z</time>
      </trkpt>
      <trkpt lat="45.48368" lon="6.96122">
        <ele>2177.04</ele>
        <time>2014-03-26T10:22:22Z</time>
      </trkpt>
      <trkpt lat="45.4837" lon="6.9613">
        <ele>2178.97</ele>
        <time>2014-03-26T10:22:35Z</time>
      </trkpt>
      <trkpt lat="45.48373" lon="6.9614">
        <ele>2180.41</ele>
        <time>2014-03-26T10:22:48Z</time>
      </trkpt>
      <trkpt lat="45.48375" lon="6.96147">
        <ele>2182.33</ele>
        <time>2014-03-26T10:23:00Z</time>
      </trkpt>
      <trkpt lat="45.48378" lon="6.96156">
        <ele>2184.25</ele>
        <time>2014-03-26T10:23:13Z</time>
      </trkpt>
      <trkpt lat="45.48379" lon="6.96165">
        <ele>2185.69</ele>
        <time>2014-03-26T10:23:25Z</time>
      </trkpt>
      <trkpt lat="45.48379" lon="6.96168">
        <ele>2185.69</ele>
        <time>2014-03-26T10:23:28Z</time>
      </trkpt>
      <trkpt lat="45.48378" lon="6.96182">
        <ele>2186.18</ele>
        <time>2014-03-26T10:23:42Z</time>
      </trkpt>
      <trkpt lat="45.48379" lon="6.96195">
        <ele>2186.18</ele>
        <time>2014-03-26T10:23:55Z</time>
      </trkpt>
      <trkpt lat="45.4838" lon="6.96207">
        <ele>2186.18</ele>
        <time>2014-03-26T10:24:07Z</time>
      </trkpt>
      <trkpt lat="45.48381" lon="6.9622">
        <ele>2188.1</ele>
        <time>2014-03-26T10:24:21Z</time>
      </trkpt>
      <trkpt lat="45.48382" lon="6.9623">
        <ele>2189.06</ele>
        <time>2014-03-26T10:24:33Z</time>
      </trkpt>
      <trkpt lat="45.48382" lon="6.96231">
        <ele>2189.06</ele>
        <time>2014-03-26T10:24:36Z</time>
      </trkpt>
      <trkpt lat="45.48382" lon="6.96239">
        <ele>2189.54</ele>
        <time>2014-03-26T10:24:47Z</time>
      </trkpt>
      <trkpt lat="45.48381" lon="6.96253">
        <ele>2189.54</ele>
        <time>2014-03-26T10:25:02Z</time>
      </trkpt>
      <trkpt lat="45.48383" lon="6.96265">
        <ele>2190.98</ele>
        <time>2014-03-26T10:25:15Z</time>
      </trkpt>
      <trkpt lat="45.48385" lon="6.96277">
        <ele>2190.98</ele>
        <time>2014-03-26T10:25:29Z</time>
      </trkpt>
      <trkpt lat="45.48385" lon="6.96286">
        <ele>2192.9</ele>
        <time>2014-03-26T10:25:42Z</time>
      </trkpt>
      <trkpt lat="45.48386" lon="6.96294">
        <ele>2194.83</ele>
        <time>2014-03-26T10:25:53Z</time>
      </trkpt>
      <trkpt lat="45.48386" lon="6.96301">
        <ele>2196.75</ele>
        <time>2014-03-26T10:26:05Z</time>
      </trkpt>
      <trkpt lat="45.48387" lon="6.96314">
        <ele>2197.23</ele>
        <time>2014-03-26T10:26:21Z</time>
      </trkpt>
      <trkpt lat="45.48386" lon="6.96323">
        <ele>2198.67</ele>
        <time>2014-03-26T10:26:34Z</time>
      </trkpt>
      <trkpt lat="45.48386" lon="6.96332">
        <ele>2201.08</ele>
        <time>2014-03-26T10:26:47Z</time>
      </trkpt>
      <trkpt lat="45.48386" lon="6.96339">
        <ele>2203</ele>
        <time>2014-03-26T10:26:58Z</time>
      </trkpt>
      <trkpt lat="45.48387" lon="6.96348">
        <ele>2203.96</ele>
        <time>2014-03-26T10:27:11Z</time>
      </trkpt>
      <trkpt lat="45.48386" lon="6.96355">
        <ele>2204.92</ele>
        <time>2014-03-26T10:27:23Z</time>
      </trkpt>
      <trkpt lat="45.48385" lon="6.96364">
        <ele>2204.92</ele>
        <time>2014-03-26T10:27:35Z</time>
      </trkpt>
      <trkpt lat="45.48384" lon="6.96373">
        <ele>2205.4</ele>
        <time>2014-03-26T10:27:47Z</time>
      </trkpt>
      <trkpt lat="45.48384" lon="6.96385">
        <ele>2207.32</ele>
        <time>2014-03-26T10:28:00Z</time>
      </trkpt>
      <trkpt lat="45.48384" lon="6.96397">
        <ele>2208.29</ele>
        <time>2014-03-26T10:28:14Z</time>
      </trkpt>
      <trkpt lat="45.48384" lon="6.96405">
        <ele>2211.17</ele>
        <time>2014-03-26T10:28:26Z</time>
      </trkpt>
      <trkpt lat="45.48384" lon="6.96411">
        <ele>2213.09</ele>
        <time>2014-03-26T10:28:38Z</time>
      </trkpt>
      <trkpt lat="45.48384" lon="6.96415">
        <ele>2213.57</ele>
        <time>2014-03-26T10:28:52Z</time>
      </trkpt>
      <trkpt lat="45.48384" lon="6.96415">
        <ele>2214.53</ele>
        <time>2014-03-26T10:29:15Z</time>
      </trkpt>
      <trkpt lat="45.4838" lon="6.96415">
        <ele>2212.13</ele>
        <time>2014-03-26T10:29:46Z</time>
      </trkpt>
      <trkpt lat="45.48383" lon="6.96417">
        <ele>2208.29</ele>
        <time>2014-03-26T10:30:17Z</time>
      </trkpt>
      <trkpt lat="45.48383" lon="6.96419">
        <ele>2206.84</ele>
        <time>2014-03-26T10:30:33Z</time>
      </trkpt>
      <trkpt lat="45.48381" lon="6.96414">
        <ele>2209.73</ele>
        <time>2014-03-26T10:30:51Z</time>
      </trkpt>
      <trkpt lat="45.48386" lon="6.96424">
        <ele>2212.61</ele>
        <time>2014-03-26T10:31:04Z</time>
      </trkpt>
      <trkpt lat="45.4839" lon="6.96434">
        <ele>2214.05</ele>
        <time>2014-03-26T10:31:18Z</time>
      </trkpt>
      <trkpt lat="45.4839" lon="6.96435">
        <ele>2214.05</ele>
        <time>2014-03-26T10:31:19Z</time>
      </trkpt>
      <trkpt lat="45.48394" lon="6.96448">
        <ele>2215.01</ele>
        <time>2014-03-26T10:31:33Z</time>
      </trkpt>
      <trkpt lat="45.48396" lon="6.96461">
        <ele>2216.94</ele>
        <time>2014-03-26T10:31:47Z</time>
      </trkpt>
      <trkpt lat="45.48396" lon="6.96469">
        <ele>2217.9</ele>
        <time>2014-03-26T10:31:59Z</time>
      </trkpt>
      <trkpt lat="45.48396" lon="6.96484">
        <ele>2217.9</ele>
        <time>2014-03-26T10:32:13Z</time>
      </trkpt>
      <trkpt lat="45.48397" lon="6.96494">
        <ele>2220.3</ele>
        <time>2014-03-26T10:32:26Z</time>
      </trkpt>
      <trkpt lat="45.48398" lon="6.96504">
        <ele>2221.74</ele>
        <time>2014-03-26T10:32:38Z</time>
      </trkpt>
      <trkpt lat="45.48398" lon="6.96512">
        <ele>2224.63</ele>
        <time>2014-03-26T10:32:51Z</time>
      </trkpt>
      <trkpt lat="45.484" lon="6.9652">
        <ele>2226.55</ele>
        <time>2014-03-26T10:33:05Z</time>
      </trkpt>
      <trkpt lat="45.48401" lon="6.96528">
        <ele>2227.51</ele>
        <time>2014-03-26T10:33:17Z</time>
      </trkpt>
      <trkpt lat="45.48403" lon="6.96531">
        <ele>2225.59</ele>
        <time>2014-03-26T10:33:37Z</time>
      </trkpt>
      <trkpt lat="45.48401" lon="6.96538">
        <ele>2226.07</ele>
        <time>2014-03-26T10:33:54Z</time>
      </trkpt>
      <trkpt lat="45.48401" lon="6.96545">
        <ele>2228.95</ele>
        <time>2014-03-26T10:34:09Z</time>
      </trkpt>
      <trkpt lat="45.48403" lon="6.96554">
        <ele>2230.88</ele>
        <time>2014-03-26T10:34:21Z</time>
      </trkpt>
      <trkpt lat="45.48403" lon="6.96561">
        <ele>2230.88</ele>
        <time>2014-03-26T10:34:34Z</time>
      </trkpt>
      <trkpt lat="45.48403" lon="6.96564">
        <ele>2232.32</ele>
        <time>2014-03-26T10:34:44Z</time>
      </trkpt>
      <trkpt lat="45.48402" lon="6.9657">
        <ele>2234.72</ele>
        <time>2014-03-26T10:34:55Z</time>
      </trkpt>
      <trkpt lat="45.48402" lon="6.96577">
        <ele>2236.16</ele>
        <time>2014-03-26T10:35:05Z</time>
      </trkpt>
      <trkpt lat="45.48403" lon="6.96586">
        <ele>2236.16</ele>
        <time>2014-03-26T10:35:18Z</time>
      </trkpt>
      <trkpt lat="45.48402" lon="6.96594">
        <ele>2238.09</ele>
        <time>2014-03-26T10:35:34Z</time>
      </trkpt>
      <trkpt lat="45.48402" lon="6.96601">
        <ele>2239.53</ele>
        <time>2014-03-26T10:35:46Z</time>
      </trkpt>
      <trkpt lat="45.48403" lon="6.96609">
        <ele>2240.49</ele>
        <time>2014-03-26T10:36:02Z</time>
      </trkpt>
      <trkpt lat="45.48402" lon="6.96616">
        <ele>2242.89</ele>
        <time>2014-03-26T10:36:14Z</time>
      </trkpt>
      <trkpt lat="45.48398" lon="6.96624">
        <ele>2243.37</ele>
        <time>2014-03-26T10:36:26Z</time>
      </trkpt>
      <trkpt lat="45.48394" lon="6.96636">
        <ele>2244.82</ele>
        <time>2014-03-26T10:36:41Z</time>
      </trkpt>
      <trkpt lat="45.48386" lon="6.96648">
        <ele>2246.74</ele>
        <time>2014-03-26T10:36:57Z</time>
      </trkpt>
      <trkpt lat="45.4838" lon="6.96657">
        <ele>2249.14</ele>
        <time>2014-03-26T10:37:11Z</time>
      </trkpt>
      <trkpt lat="45.48378" lon="6.96664">
        <ele>2252.51</ele>
        <time>2014-03-26T10:37:25Z</time>
      </trkpt>
      <trkpt lat="45.48371" lon="6.96669">
        <ele>2253.47</ele>
        <time>2014-03-26T10:37:39Z</time>
      </trkpt>
      <trkpt lat="45.48366" lon="6.96675">
        <ele>2256.83</ele>
        <time>2014-03-26T10:37:53Z</time>
      </trkpt>
      <trkpt lat="45.48367" lon="6.9668">
        <ele>2257.79</ele>
        <time>2014-03-26T10:37:58Z</time>
      </trkpt>
      <trkpt lat="45.48372" lon="6.96686">
        <ele>2259.72</ele>
        <time>2014-03-26T10:38:05Z</time>
      </trkpt>
      <trkpt lat="45.48384" lon="6.96692">
        <ele>2261.16</ele>
        <time>2014-03-26T10:38:18Z</time>
      </trkpt>
      <trkpt lat="45.48387" lon="6.96692">
        <ele>2261.16</ele>
        <time>2014-03-26T10:38:21Z</time>
      </trkpt>
      <trkpt lat="45.4839" lon="6.96692">
        <ele>2260.68</ele>
        <time>2014-03-26T10:38:23Z</time>
      </trkpt>
      <trkpt lat="45.48394" lon="6.9669">
        <ele>2261.16</ele>
        <time>2014-03-26T10:38:27Z</time>
      </trkpt>
      <trkpt lat="45.48397" lon="6.9669">
        <ele>2261.64</ele>
        <time>2014-03-26T10:38:29Z</time>
      </trkpt>
      <trkpt lat="45.4841" lon="6.96685">
        <ele>2260.68</ele>
        <time>2014-03-26T10:38:42Z</time>
      </trkpt>
      <trkpt lat="45.48412" lon="6.96684">
        <ele>2261.64</ele>
        <time>2014-03-26T10:38:44Z</time>
      </trkpt>
      <trkpt lat="45.48413" lon="6.96683">
        <ele>2262.12</ele>
        <time>2014-03-26T10:38:46Z</time>
      </trkpt>
      <trkpt lat="45.48423" lon="6.9668">
        <ele>2262.12</ele>
        <time>2014-03-26T10:38:56Z</time>
      </trkpt>
      <trkpt lat="45.48437" lon="6.96676">
        <ele>2263.08</ele>
        <time>2014-03-26T10:39:08Z</time>
      </trkpt>
      <trkpt lat="45.48438" lon="6.96676">
        <ele>2263.56</ele>
        <time>2014-03-26T10:39:10Z</time>
      </trkpt>
      <trkpt lat="45.4844" lon="6.96675">
        <ele>2264.04</ele>
        <time>2014-03-26T10:39:13Z</time>
      </trkpt>
      <trkpt lat="45.48445" lon="6.96674">
        <ele>2265</ele>
        <time>2014-03-26T10:39:19Z</time>
      </trkpt>
      <trkpt lat="45.48456" lon="6.96667">
        <ele>2265</ele>
        <time>2014-03-26T10:39:34Z</time>
      </trkpt>
      <trkpt lat="45.48467" lon="6.96662">
        <ele>2263.56</ele>
        <time>2014-03-26T10:39:46Z</time>
      </trkpt>
      <trkpt lat="45.48478" lon="6.96663">
        <ele>2264.04</ele>
        <time>2014-03-26T10:39:58Z</time>
      </trkpt>
      <trkpt lat="45.48481" lon="6.96663">
        <ele>2265.48</ele>
        <time>2014-03-26T10:40:02Z</time>
      </trkpt>
      <trkpt lat="45.48492" lon="6.9666">
        <ele>2268.37</ele>
        <time>2014-03-26T10:40:16Z</time>
      </trkpt>
      <trkpt lat="45.48496" lon="6.96658">
        <ele>2271.25</ele>
        <time>2014-03-26T10:40:30Z</time>
      </trkpt>
      <trkpt lat="45.48506" lon="6.96655">
        <ele>2272.69</ele>
        <time>2014-03-26T10:40:43Z</time>
      </trkpt>
      <trkpt lat="45.4852" lon="6.96653">
        <ele>2275.1</ele>
        <time>2014-03-26T10:40:57Z</time>
      </trkpt>
      <trkpt lat="45.48525" lon="6.96652">
        <ele>2274.14</ele>
        <time>2014-03-26T10:41:01Z</time>
      </trkpt>
      <trkpt lat="45.48529" lon="6.96654">
        <ele>2274.62</ele>
        <time>2014-03-26T10:41:05Z</time>
      </trkpt>
      <trkpt lat="45.48532" lon="6.96658">
        <ele>2276.06</ele>
        <time>2014-03-26T10:41:10Z</time>
      </trkpt>
      <trkpt lat="45.48536" lon="6.96674">
        <ele>2278.46</ele>
        <time>2014-03-26T10:41:24Z</time>
      </trkpt>
      <trkpt lat="45.48537" lon="6.96686">
        <ele>2280.87</ele>
        <time>2014-03-26T10:41:37Z</time>
      </trkpt>
      <trkpt lat="45.48537" lon="6.967">
        <ele>2282.79</ele>
        <time>2014-03-26T10:41:51Z</time>
      </trkpt>
      <trkpt lat="45.4854" lon="6.96712">
        <ele>2284.71</ele>
        <time>2014-03-26T10:42:04Z</time>
      </trkpt>
      <trkpt lat="45.48542" lon="6.96708">
        <ele>2286.63</ele>
        <time>2014-03-26T10:42:17Z</time>
      </trkpt>
      <trkpt lat="45.48543" lon="6.96706">
        <ele>2288.08</ele>
        <time>2014-03-26T10:42:33Z</time>
      </trkpt>
      <trkpt lat="45.48541" lon="6.96705">
        <ele>2287.59</ele>
        <time>2014-03-26T10:42:44Z</time>
      </trkpt>
      <trkpt lat="45.48543" lon="6.96704">
        <ele>2287.11</ele>
        <time>2014-03-26T10:43:13Z</time>
      </trkpt>
      <trkpt lat="45.48541" lon="6.96708">
        <ele>2286.15</ele>
        <time>2014-03-26T10:43:45Z</time>
      </trkpt>
      <trkpt lat="45.4854" lon="6.9671">
        <ele>2285.67</ele>
        <time>2014-03-26T10:44:25Z</time>
      </trkpt>
      <trkpt lat="45.4854" lon="6.96707">
        <ele>2283.75</ele>
        <time>2014-03-26T10:44:57Z</time>
      </trkpt>
      <trkpt lat="45.48541" lon="6.96708">
        <ele>2283.27</ele>
        <time>2014-03-26T10:45:27Z</time>
      </trkpt>
      <trkpt lat="45.48544" lon="6.96703">
        <ele>2281.83</ele>
        <time>2014-03-26T10:46:00Z</time>
      </trkpt>
      <trkpt lat="45.48543" lon="6.96705">
        <ele>2279.9</ele>
        <time>2014-03-26T10:46:31Z</time>
      </trkpt>
      <trkpt lat="45.48542" lon="6.96705">
        <ele>2280.87</ele>
        <time>2014-03-26T10:47:05Z</time>
      </trkpt>
      <trkpt lat="45.48547" lon="6.967">
        <ele>2280.38</ele>
        <time>2014-03-26T10:47:47Z</time>
      </trkpt>
      <trkpt lat="45.48547" lon="6.96699">
        <ele>2283.75</ele>
        <time>2014-03-26T10:48:22Z</time>
      </trkpt>
      <trkpt lat="45.48547" lon="6.967">
        <ele>2282.79</ele>
        <time>2014-03-26T10:48:58Z</time>
      </trkpt>
      <trkpt lat="45.48545" lon="6.96705">
        <ele>2279.9</ele>
        <time>2014-03-26T10:49:33Z</time>
      </trkpt>
      <trkpt lat="45.4854" lon="6.96711">
        <ele>2279.42</ele>
        <time>2014-03-26T10:50:14Z</time>
      </trkpt>
      <trkpt lat="45.48541" lon="6.96711">
        <ele>2279.42</ele>
        <time>2014-03-26T10:50:46Z</time>
      </trkpt>
      <trkpt lat="45.48541" lon="6.96708">
        <ele>2283.75</ele>
        <time>2014-03-26T10:51:17Z</time>
      </trkpt>
      <trkpt lat="45.4853" lon="6.96723">
        <ele>2283.75</ele>
        <time>2014-03-26T10:51:49Z</time>
      </trkpt>
      <trkpt lat="45.48535" lon="6.96717">
        <ele>2279.42</ele>
        <time>2014-03-26T10:52:20Z</time>
      </trkpt>
      <trkpt lat="45.4854" lon="6.96709">
        <ele>2278.94</ele>
        <time>2014-03-26T10:52:40Z</time>
      </trkpt>
      <trkpt lat="45.48537" lon="6.96711">
        <ele>2285.67</ele>
        <time>2014-03-26T10:53:04Z</time>
      </trkpt>
      <trkpt lat="45.48537" lon="6.9671">
        <ele>2288.56</ele>
        <time>2014-03-26T10:53:24Z</time>
      </trkpt>
      <trkpt lat="45.48544" lon="6.96703">
        <ele>2287.11</ele>
        <time>2014-03-26T10:53:48Z</time>
      </trkpt>
      <trkpt lat="45.48541" lon="6.96704">
        <ele>2284.23</ele>
        <time>2014-03-26T10:54:03Z</time>
      </trkpt>
      <trkpt lat="45.48542" lon="6.96705">
        <ele>2287.59</ele>
        <time>2014-03-26T10:54:38Z</time>
      </trkpt>
      <trkpt lat="45.48544" lon="6.96702">
        <ele>2284.23</ele>
        <time>2014-03-26T10:55:06Z</time>
      </trkpt>
      <trkpt lat="45.48544" lon="6.96701">
        <ele>2283.75</ele>
        <time>2014-03-26T10:55:23Z</time>
      </trkpt>
      <trkpt lat="45.48544" lon="6.967">
        <ele>2284.23</ele>
        <time>2014-03-26T10:55:41Z</time>
      </trkpt>
      <trkpt lat="45.48544" lon="6.96704">
        <ele>2284.71</ele>
        <time>2014-03-26T10:56:02Z</time>
      </trkpt>
      <trkpt lat="45.48544" lon="6.96703">
        <ele>2281.83</ele>
        <time>2014-03-26T10:56:21Z</time>
      </trkpt>
      <trkpt lat="45.48545" lon="6.96704">
        <ele>2281.35</ele>
        <time>2014-03-26T10:56:47Z</time>
      </trkpt>
      <trkpt lat="45.48544" lon="6.96705">
        <ele>2282.31</ele>
        <time>2014-03-26T10:57:16Z</time>
      </trkpt>
      <trkpt lat="45.48543" lon="6.96705">
        <ele>2286.15</ele>
        <time>2014-03-26T10:57:40Z</time>
      </trkpt>
      <trkpt lat="45.48541" lon="6.96705">
        <ele>2282.31</ele>
        <time>2014-03-26T10:58:11Z</time>
      </trkpt>
      <trkpt lat="45.48542" lon="6.96702">
        <ele>2284.23</ele>
        <time>2014-03-26T10:58:36Z</time>
      </trkpt>
      <trkpt lat="45.48542" lon="6.96703">
        <ele>2287.11</ele>
        <time>2014-03-26T10:58:55Z</time>
      </trkpt>
      <trkpt lat="45.48542" lon="6.96706">
        <ele>2285.19</ele>
        <time>2014-03-26T10:59:18Z</time>
      </trkpt>
      <trkpt lat="45.48542" lon="6.96704">
        <ele>2287.11</ele>
        <time>2014-03-26T10:59:41Z</time>
      </trkpt>
      <trkpt lat="45.48543" lon="6.96704">
        <ele>2285.19</ele>
        <time>2014-03-26T11:00:03Z</time>
      </trkpt>
      <trkpt lat="45.48541" lon="6.96703">
        <ele>2285.67</ele>
        <time>2014-03-26T11:00:34Z</time>
      </trkpt>
      <trkpt lat="45.48539" lon="6.96702">
        <ele>2287.11</ele>
        <time>2014-03-26T11:00:54Z</time>
      </trkpt>
      <trkpt lat="45.48542" lon="6.96703">
        <ele>2288.08</ele>
        <time>2014-03-26T11:01:16Z</time>
      </trkpt>
      <trkpt lat="45.48542" lon="6.96704">
        <ele>2288.08</ele>
        <time>2014-03-26T11:01:43Z</time>
      </trkpt>
      <trkpt lat="45.48542" lon="6.96705">
        <ele>2286.63</ele>
        <time>2014-03-26T11:01:58Z</time>
      </trkpt>
      <trkpt lat="45.48543" lon="6.967">
        <ele>2285.19</ele>
        <time>2014-03-26T11:02:24Z</time>
      </trkpt>
      <trkpt lat="45.48545" lon="6.96701">
        <ele>2284.71</ele>
        <time>2014-03-26T11:02:52Z</time>
      </trkpt>
      <trkpt lat="45.48541" lon="6.96703">
        <ele>2286.15</ele>
        <time>2014-03-26T11:03:17Z</time>
      </trkpt>
      <trkpt lat="45.48541" lon="6.96701">
        <ele>2285.19</ele>
        <time>2014-03-26T11:03:38Z</time>
      </trkpt>
      <trkpt lat="45.48544" lon="6.967">
        <ele>2284.23</ele>
        <time>2014-03-26T11:04:00Z</time>
      </trkpt>
      <trkpt lat="45.48544" lon="6.96702">
        <ele>2288.08</ele>
        <time>2014-03-26T11:04:27Z</time>
      </trkpt>
      <trkpt lat="45.48545" lon="6.96698">
        <ele>2285.67</ele>
        <time>2014-03-26T11:04:59Z</time>
      </trkpt>
      <trkpt lat="45.48546" lon="6.967">
        <ele>2288.56</ele>
        <time>2014-03-26T11:05:26Z</time>
      </trkpt>
      <trkpt lat="45.48546" lon="6.967">
        <ele>2285.67</ele>
        <time>2014-03-26T11:06:07Z</time>
      </trkpt>
      <trkpt lat="45.48545" lon="6.96699">
        <ele>2287.11</ele>
        <time>2014-03-26T11:06:43Z</time>
      </trkpt>
      <trkpt lat="45.48546" lon="6.967">
        <ele>2285.19</ele>
        <time>2014-03-26T11:07:18Z</time>
      </trkpt>
      <trkpt lat="45.48542" lon="6.96702">
        <ele>2289.04</ele>
        <time>2014-03-26T11:07:51Z</time>
      </trkpt>
      <trkpt lat="45.48545" lon="6.96699">
        <ele>2286.63</ele>
        <time>2014-03-26T11:08:21Z</time>
      </trkpt>
      <trkpt lat="45.48542" lon="6.96702">
        <ele>2286.63</ele>
        <time>2014-03-26T11:09:01Z</time>
      </trkpt>
      <trkpt lat="45.48542" lon="6.96702">
        <ele>2283.75</ele>
        <time>2014-03-26T11:09:30Z</time>
      </trkpt>
      <trkpt lat="45.48542" lon="6.96702">
        <ele>2282.31</ele>
        <time>2014-03-26T11:10:04Z</time>
      </trkpt>
      <trkpt lat="45.48538" lon="6.96705">
        <ele>2279.9</ele>
        <time>2014-03-26T11:10:35Z</time>
      </trkpt>
      <trkpt lat="45.48539" lon="6.96704">
        <ele>2280.87</ele>
        <time>2014-03-26T11:11:02Z</time>
      </trkpt>
      <trkpt lat="45.48539" lon="6.96704">
        <ele>2282.31</ele>
        <time>2014-03-26T11:11:34Z</time>
      </trkpt>
      <trkpt lat="45.48545" lon="6.96702">
        <ele>2280.87</ele>
        <time>2014-03-26T11:12:10Z</time>
      </trkpt>
      <trkpt lat="45.48541" lon="6.96704">
        <ele>2280.87</ele>
        <time>2014-03-26T11:12:37Z</time>
      </trkpt>
      <trkpt lat="45.48542" lon="6.96706">
        <ele>2283.75</ele>
        <time>2014-03-26T11:13:11Z</time>
      </trkpt>
      <trkpt lat="45.4854" lon="6.96707">
        <ele>2284.23</ele>
        <time>2014-03-26T11:13:52Z</time>
      </trkpt>
      <trkpt lat="45.48538" lon="6.96704">
        <ele>2282.31</ele>
        <time>2014-03-26T11:14:32Z</time>
      </trkpt>
      <trkpt lat="45.48538" lon="6.96704">
        <ele>2279.9</ele>
        <time>2014-03-26T11:15:11Z</time>
      </trkpt>
      <trkpt lat="45.48539" lon="6.96706">
        <ele>2280.38</ele>
        <time>2014-03-26T11:15:47Z</time>
      </trkpt>
      <trkpt lat="45.4854" lon="6.96704">
        <ele>2284.71</ele>
        <time>2014-03-26T11:16:22Z</time>
      </trkpt>
      <trkpt lat="45.48543" lon="6.96703">
        <ele>2284.71</ele>
        <time>2014-03-26T11:16:55Z</time>
      </trkpt>
      <trkpt lat="45.48542" lon="6.967">
        <ele>2286.15</ele>
        <time>2014-03-26T11:17:32Z</time>
      </trkpt>
      <trkpt lat="45.48539" lon="6.96703">
        <ele>2284.23</ele>
        <time>2014-03-26T11:18:08Z</time>
      </trkpt>
      <trkpt lat="45.48542" lon="6.96699">
        <ele>2287.11</ele>
        <time>2014-03-26T11:18:37Z</time>
      </trkpt>
      <trkpt lat="45.4854" lon="6.967">
        <ele>2288.56</ele>
        <time>2014-03-26T11:19:15Z</time>
      </trkpt>
      <trkpt lat="45.48541" lon="6.96702">
        <ele>2288.56</ele>
        <time>2014-03-26T11:19:41Z</time>
      </trkpt>
      <trkpt lat="45.48541" lon="6.96701">
        <ele>2285.67</ele>
        <time>2014-03-26T11:20:09Z</time>
      </trkpt>
      <trkpt lat="45.48543" lon="6.96701">
        <ele>2285.19</ele>
        <time>2014-03-26T11:20:24Z</time>
      </trkpt>
      <trkpt lat="45.48541" lon="6.96703">
        <ele>2285.67</ele>
        <time>2014-03-26T11:20:58Z</time>
      </trkpt>
      <trkpt lat="45.48542" lon="6.96701">
        <ele>2281.83</ele>
        <time>2014-03-26T11:21:24Z</time>
      </trkpt>
      <trkpt lat="45.48539" lon="6.96701">
        <ele>2283.27</ele>
        <time>2014-03-26T11:21:46Z</time>
      </trkpt>
      <trkpt lat="45.48541" lon="6.96704">
        <ele>2285.67</ele>
        <time>2014-03-26T11:22:12Z</time>
      </trkpt>
      <trkpt lat="45.48538" lon="6.96705">
        <ele>2284.23</ele>
        <time>2014-03-26T11:22:39Z</time>
      </trkpt>
      <trkpt lat="45.48544" lon="6.96702">
        <ele>2285.19</ele>
        <time>2014-03-26T11:23:08Z</time>
      </trkpt>
      <trkpt lat="45.48543" lon="6.96704">
        <ele>2287.59</ele>
        <time>2014-03-26T11:23:35Z</time>
      </trkpt>
      <trkpt lat="45.48542" lon="6.96697">
        <ele>2285.19</ele>
        <time>2014-03-26T11:23:56Z</time>
      </trkpt>
      <trkpt lat="45.48543" lon="6.96699">
        <ele>2287.11</ele>
        <time>2014-03-26T11:24:21Z</time>
      </trkpt>
      <trkpt lat="45.48542" lon="6.96703">
        <ele>2286.63</ele>
        <time>2014-03-26T11:24:48Z</time>
      </trkpt>
      <trkpt lat="45.48542" lon="6.96703">
        <ele>2289.04</ele>
        <time>2014-03-26T11:25:19Z</time>
      </trkpt>
      <trkpt lat="45.48542" lon="6.96704">
        <ele>2285.19</ele>
        <time>2014-03-26T11:25:52Z</time>
      </trkpt>
      <trkpt lat="45.48541" lon="6.96699">
        <ele>2284.71</ele>
        <time>2014-03-26T11:26:22Z</time>
      </trkpt>
      <trkpt lat="45.48541" lon="6.967">
        <ele>2283.27</ele>
        <time>2014-03-26T11:26:55Z</time>
      </trkpt>
      <trkpt lat="45.48543" lon="6.96701">
        <ele>2286.15</ele>
        <time>2014-03-26T11:27:24Z</time>
      </trkpt>
      <trkpt lat="45.48544" lon="6.96702">
        <ele>2284.71</ele>
        <time>2014-03-26T11:27:56Z</time>
      </trkpt>
      <trkpt lat="45.48545" lon="6.96701">
        <ele>2283.75</ele>
        <time>2014-03-26T11:28:28Z</time>
      </trkpt>
      <trkpt lat="45.48547" lon="6.96704">
        <ele>2283.75</ele>
        <time>2014-03-26T11:28:58Z</time>
      </trkpt>
      <trkpt lat="45.48546" lon="6.96702">
        <ele>2283.75</ele>
        <time>2014-03-26T11:29:12Z</time>
      </trkpt>
      <trkpt lat="45.48544" lon="6.96703">
        <ele>2282.31</ele>
        <time>2014-03-26T11:29:52Z</time>
      </trkpt>
      <trkpt lat="45.48544" lon="6.96704">
        <ele>2282.79</ele>
        <time>2014-03-26T11:30:16Z</time>
      </trkpt>
      <trkpt lat="45.48543" lon="6.96705">
        <ele>2283.75</ele>
        <time>2014-03-26T11:30:33Z</time>
      </trkpt>
      <trkpt lat="45.48543" lon="6.96703">
        <ele>2280.87</ele>
        <time>2014-03-26T11:30:59Z</time>
      </trkpt>
      <trkpt lat="45.48544" lon="6.96703">
        <ele>2283.75</ele>
        <time>2014-03-26T11:31:33Z</time>
      </trkpt>
      <trkpt lat="45.48543" lon="6.96705">
        <ele>2282.79</ele>
        <time>2014-03-26T11:32:08Z</time>
      </trkpt>
      <trkpt lat="45.48543" lon="6.96703">
        <ele>2282.79</ele>
        <time>2014-03-26T11:32:43Z</time>
      </trkpt>
      <trkpt lat="45.48541" lon="6.96707">
        <ele>2281.35</ele>
        <time>2014-03-26T11:33:21Z</time>
      </trkpt>
      <trkpt lat="45.48542" lon="6.96704">
        <ele>2281.35</ele>
        <time>2014-03-26T11:34:01Z</time>
      </trkpt>
      <trkpt lat="45.48543" lon="6.96705">
        <ele>2283.27</ele>
        <time>2014-03-26T11:34:30Z</time>
      </trkpt>
      <trkpt lat="45.48543" lon="6.96704">
        <ele>2283.75</ele>
        <time>2014-03-26T11:35:03Z</time>
      </trkpt>
      <trkpt lat="45.48543" lon="6.96704">
        <ele>2286.15</ele>
        <time>2014-03-26T11:35:35Z</time>
      </trkpt>
      <trkpt lat="45.48542" lon="6.96705">
        <ele>2281.83</ele>
        <time>2014-03-26T11:36:06Z</time>
      </trkpt>
      <trkpt lat="45.48543" lon="6.96704">
        <ele>2281.35</ele>
        <time>2014-03-26T11:36:35Z</time>
      </trkpt>
      <trkpt lat="45.48543" lon="6.96702">
        <ele>2282.79</ele>
        <time>2014-03-26T11:37:07Z</time>
      </trkpt>
      <trkpt lat="45.48544" lon="6.967">
        <ele>2285.19</ele>
        <time>2014-03-26T11:37:34Z</time>
      </trkpt>
      <trkpt lat="45.48543" lon="6.96701">
        <ele>2285.19</ele>
        <time>2014-03-26T11:38:04Z</time>
      </trkpt>
      <trkpt lat="45.48544" lon="6.96704">
        <ele>2285.19</ele>
        <time>2014-03-26T11:38:21Z</time>
      </trkpt>
      <trkpt lat="45.48545" lon="6.96704">
        <ele>2285.67</ele>
        <time>2014-03-26T11:38:34Z</time>
      </trkpt>
      <trkpt lat="45.48544" lon="6.96705">
        <ele>2284.23</ele>
        <time>2014-03-26T11:38:51Z</time>
      </trkpt>
      <trkpt lat="45.48544" lon="6.96708">
        <ele>2285.19</ele>
        <time>2014-03-26T11:39:07Z</time>
      </trkpt>
      <trkpt lat="45.48543" lon="6.96707">
        <ele>2284.71</ele>
        <time>2014-03-26T11:39:22Z</time>
      </trkpt>
      <trkpt lat="45.48544" lon="6.96715">
        <ele>2285.19</ele>
        <time>2014-03-26T11:39:31Z</time>
      </trkpt>
      <trkpt lat="45.48544" lon="6.96717">
        <ele>2285.19</ele>
        <time>2014-03-26T11:39:32Z</time>
      </trkpt>
      <trkpt lat="45.48545" lon="6.96732">
        <ele>2285.67</ele>
        <time>2014-03-26T11:39:44Z</time>
      </trkpt>
      <trkpt lat="45.48548" lon="6.96731">
        <ele>2285.19</ele>
        <time>2014-03-26T11:39:56Z</time>
      </trkpt>
      <trkpt lat="45.48545" lon="6.9673">
        <ele>2286.63</ele>
        <time>2014-03-26T11:40:24Z</time>
      </trkpt>
      <trkpt lat="45.48546" lon="6.96732">
        <ele>2288.08</ele>
        <time>2014-03-26T11:40:49Z</time>
      </trkpt>
      <trkpt lat="45.48543" lon="6.96733">
        <ele>2290.48</ele>
        <time>2014-03-26T11:41:17Z</time>
      </trkpt>
      <trkpt lat="45.48544" lon="6.96732">
        <ele>2294.32</ele>
        <time>2014-03-26T11:41:46Z</time>
      </trkpt>
      <trkpt lat="45.48547" lon="6.96732">
        <ele>2294.8</ele>
        <time>2014-03-26T11:42:07Z</time>
      </trkpt>
      <trkpt lat="45.48547" lon="6.96733">
        <ele>2294.32</ele>
        <time>2014-03-26T11:42:08Z</time>
      </trkpt>
      <trkpt lat="45.48546" lon="6.96732">
        <ele>2293.36</ele>
        <time>2014-03-26T11:42:11Z</time>
      </trkpt>
      <trkpt lat="45.48543" lon="6.96729">
        <ele>2291.44</ele>
        <time>2014-03-26T11:42:16Z</time>
      </trkpt>
      <trkpt lat="45.48544" lon="6.96727">
        <ele>2290.48</ele>
        <time>2014-03-26T11:42:18Z</time>
      </trkpt>
      <trkpt lat="45.48547" lon="6.9672">
        <ele>2289.52</ele>
        <time>2014-03-26T11:42:23Z</time>
      </trkpt>
      <trkpt lat="45.48547" lon="6.96714">
        <ele>2288.08</ele>
        <time>2014-03-26T11:42:35Z</time>
      </trkpt>
      <trkpt lat="45.48545" lon="6.96711">
        <ele>2287.59</ele>
        <time>2014-03-26T11:43:03Z</time>
      </trkpt>
      <trkpt lat="45.48547" lon="6.96713">
        <ele>2290</ele>
        <time>2014-03-26T11:43:32Z</time>
      </trkpt>
      <trkpt lat="45.48549" lon="6.96715">
        <ele>2287.11</ele>
        <time>2014-03-26T11:43:52Z</time>
      </trkpt>
      <trkpt lat="45.48549" lon="6.96713">
        <ele>2286.15</ele>
        <time>2014-03-26T11:44:09Z</time>
      </trkpt>
      <trkpt lat="45.4855" lon="6.96715">
        <ele>2288.08</ele>
        <time>2014-03-26T11:44:39Z</time>
      </trkpt>
      <trkpt lat="45.48549" lon="6.96713">
        <ele>2285.19</ele>
        <time>2014-03-26T11:44:59Z</time>
      </trkpt>
      <trkpt lat="45.48547" lon="6.96713">
        <ele>2282.79</ele>
        <time>2014-03-26T11:45:30Z</time>
      </trkpt>
      <trkpt lat="45.48547" lon="6.96711">
        <ele>2285.67</ele>
        <time>2014-03-26T11:46:01Z</time>
      </trkpt>
      <trkpt lat="45.48549" lon="6.96714">
        <ele>2285.19</ele>
        <time>2014-03-26T11:46:16Z</time>
      </trkpt>
      <trkpt lat="45.4855" lon="6.96713">
        <ele>2285.19</ele>
        <time>2014-03-26T11:46:38Z</time>
      </trkpt>
      <trkpt lat="45.48549" lon="6.96713">
        <ele>2285.67</ele>
        <time>2014-03-26T11:46:55Z</time>
      </trkpt>
      <trkpt lat="45.48549" lon="6.96713">
        <ele>2285.19</ele>
        <time>2014-03-26T11:47:17Z</time>
      </trkpt>
      <trkpt lat="45.48548" lon="6.96711">
        <ele>2285.67</ele>
        <time>2014-03-26T11:47:35Z</time>
      </trkpt>
      <trkpt lat="45.48549" lon="6.96715">
        <ele>2286.15</ele>
        <time>2014-03-26T11:47:56Z</time>
      </trkpt>
      <trkpt lat="45.48555" lon="6.96722">
        <ele>2287.11</ele>
        <time>2014-03-26T11:48:09Z</time>
      </trkpt>
      <trkpt lat="45.48561" lon="6.96724">
        <ele>2286.15</ele>
        <time>2014-03-26T11:48:21Z</time>
      </trkpt>
      <trkpt lat="45.48571" lon="6.96731">
        <ele>2285.67</ele>
        <time>2014-03-26T11:48:34Z</time>
      </trkpt>
      <trkpt lat="45.48575" lon="6.96732">
        <ele>2284.71</ele>
        <time>2014-03-26T11:48:39Z</time>
      </trkpt>
      <trkpt lat="45.48587" lon="6.96732">
        <ele>2282.31</ele>
        <time>2014-03-26T11:48:54Z</time>
      </trkpt>
      <trkpt lat="45.48595" lon="6.96734">
        <ele>2282.31</ele>
        <time>2014-03-26T11:49:08Z</time>
      </trkpt>
      <trkpt lat="45.48596" lon="6.96735">
        <ele>2282.79</ele>
        <time>2014-03-26T11:49:10Z</time>
      </trkpt>
      <trkpt lat="45.48607" lon="6.96743">
        <ele>2285.19</ele>
        <time>2014-03-26T11:49:26Z</time>
      </trkpt>
      <trkpt lat="45.4861" lon="6.9675">
        <ele>2285.67</ele>
        <time>2014-03-26T11:49:32Z</time>
      </trkpt>
      <trkpt lat="45.4862" lon="6.96758">
        <ele>2286.15</ele>
        <time>2014-03-26T11:49:46Z</time>
      </trkpt>
      <trkpt lat="45.48626" lon="6.96761">
        <ele>2286.63</ele>
        <time>2014-03-26T11:49:55Z</time>
      </trkpt>
      <trkpt lat="45.48638" lon="6.96767">
        <ele>2285.67</ele>
        <time>2014-03-26T11:50:10Z</time>
      </trkpt>
      <trkpt lat="45.48645" lon="6.96774">
        <ele>2286.63</ele>
        <time>2014-03-26T11:50:24Z</time>
      </trkpt>
      <trkpt lat="45.48651" lon="6.9678">
        <ele>2288.08</ele>
        <time>2014-03-26T11:50:37Z</time>
      </trkpt>
      <trkpt lat="45.48661" lon="6.96789">
        <ele>2289.52</ele>
        <time>2014-03-26T11:50:51Z</time>
      </trkpt>
      <trkpt lat="45.48668" lon="6.96798">
        <ele>2290.48</ele>
        <time>2014-03-26T11:51:04Z</time>
      </trkpt>
      <trkpt lat="45.48678" lon="6.96808">
        <ele>2291.44</ele>
        <time>2014-03-26T11:51:18Z</time>
      </trkpt>
      <trkpt lat="45.48685" lon="6.96815">
        <ele>2291.92</ele>
        <time>2014-03-26T11:51:32Z</time>
      </trkpt>
      <trkpt lat="45.48691" lon="6.96824">
        <ele>2292.4</ele>
        <time>2014-03-26T11:51:45Z</time>
      </trkpt>
      <trkpt lat="45.48695" lon="6.96835">
        <ele>2294.32</ele>
        <time>2014-03-26T11:51:58Z</time>
      </trkpt>
      <trkpt lat="45.48698" lon="6.96847">
        <ele>2295.77</ele>
        <time>2014-03-26T11:52:11Z</time>
      </trkpt>
      <trkpt lat="45.487" lon="6.9686">
        <ele>2297.69</ele>
        <time>2014-03-26T11:52:25Z</time>
      </trkpt>
      <trkpt lat="45.48702" lon="6.96872">
        <ele>2299.61</ele>
        <time>2014-03-26T11:52:38Z</time>
      </trkpt>
      <trkpt lat="45.48706" lon="6.96882">
        <ele>2300.09</ele>
        <time>2014-03-26T11:52:50Z</time>
      </trkpt>
      <trkpt lat="45.48708" lon="6.96891">
        <ele>2301.53</ele>
        <time>2014-03-26T11:53:02Z</time>
      </trkpt>
      <trkpt lat="45.4871" lon="6.96904">
        <ele>2302.98</ele>
        <time>2014-03-26T11:53:16Z</time>
      </trkpt>
      <trkpt lat="45.48715" lon="6.96912">
        <ele>2303.94</ele>
        <time>2014-03-26T11:53:30Z</time>
      </trkpt>
      <trkpt lat="45.48724" lon="6.96923">
        <ele>2304.42</ele>
        <time>2014-03-26T11:53:41Z</time>
      </trkpt>
      <trkpt lat="45.48736" lon="6.96936">
        <ele>2302.98</ele>
        <time>2014-03-26T11:53:58Z</time>
      </trkpt>
      <trkpt lat="45.48748" lon="6.96944">
        <ele>2302.49</ele>
        <time>2014-03-26T11:54:14Z</time>
      </trkpt>
      <trkpt lat="45.48758" lon="6.96953">
        <ele>2301.53</ele>
        <time>2014-03-26T11:54:30Z</time>
      </trkpt>
      <trkpt lat="45.48766" lon="6.96963">
        <ele>2302.49</ele>
        <time>2014-03-26T11:54:45Z</time>
      </trkpt>
      <trkpt lat="45.48772" lon="6.9697">
        <ele>2303.94</ele>
        <time>2014-03-26T11:54:58Z</time>
      </trkpt>
      <trkpt lat="45.48776" lon="6.96979">
        <ele>2305.38</ele>
        <time>2014-03-26T11:55:11Z</time>
      </trkpt>
      <trkpt lat="45.48786" lon="6.96992">
        <ele>2305.38</ele>
        <time>2014-03-26T11:55:29Z</time>
      </trkpt>
      <trkpt lat="45.48794" lon="6.97001">
        <ele>2305.86</ele>
        <time>2014-03-26T11:55:44Z</time>
      </trkpt>
      <trkpt lat="45.48801" lon="6.9701">
        <ele>2306.82</ele>
        <time>2014-03-26T11:55:57Z</time>
      </trkpt>
      <trkpt lat="45.48808" lon="6.97021">
        <ele>2307.3</ele>
        <time>2014-03-26T11:56:11Z</time>
      </trkpt>
      <trkpt lat="45.48812" lon="6.97028">
        <ele>2308.26</ele>
        <time>2014-03-26T11:56:25Z</time>
      </trkpt>
      <trkpt lat="45.48812" lon="6.97026">
        <ele>2308.26</ele>
        <time>2014-03-26T11:56:46Z</time>
      </trkpt>
      <trkpt lat="45.48811" lon="6.97027">
        <ele>2308.26</ele>
        <time>2014-03-26T11:57:05Z</time>
      </trkpt>
      <trkpt lat="45.48812" lon="6.97028">
        <ele>2308.26</ele>
        <time>2014-03-26T11:57:27Z</time>
      </trkpt>
      <trkpt lat="45.48811" lon="6.97026">
        <ele>2307.3</ele>
        <time>2014-03-26T11:57:45Z</time>
      </trkpt>
      <trkpt lat="45.4881" lon="6.97027">
        <ele>2308.26</ele>
        <time>2014-03-26T11:57:57Z</time>
      </trkpt>
      <trkpt lat="45.4881" lon="6.97025">
        <ele>2308.74</ele>
        <time>2014-03-26T11:58:15Z</time>
      </trkpt>
      <trkpt lat="45.4881" lon="6.97025">
        <ele>2308.74</ele>
        <time>2014-03-26T11:58:42Z</time>
      </trkpt>
      <trkpt lat="45.48811" lon="6.97026">
        <ele>2308.74</ele>
        <time>2014-03-26T11:59:05Z</time>
      </trkpt>
      <trkpt lat="45.48812" lon="6.97028">
        <ele>2306.82</ele>
        <time>2014-03-26T11:59:25Z</time>
      </trkpt>
      <trkpt lat="45.48811" lon="6.97028">
        <ele>2307.3</ele>
        <time>2014-03-26T11:59:45Z</time>
      </trkpt>
      <trkpt lat="45.48811" lon="6.97026">
        <ele>2307.78</ele>
        <time>2014-03-26T12:00:02Z</time>
      </trkpt>
      <trkpt lat="45.48812" lon="6.97027">
        <ele>2306.82</ele>
        <time>2014-03-26T12:00:25Z</time>
      </trkpt>
      <trkpt lat="45.48812" lon="6.97026">
        <ele>2306.82</ele>
        <time>2014-03-26T12:00:38Z</time>
      </trkpt>
      <trkpt lat="45.48811" lon="6.97027">
        <ele>2305.38</ele>
        <time>2014-03-26T12:00:57Z</time>
      </trkpt>
      <trkpt lat="45.48813" lon="6.97031">
        <ele>2306.34</ele>
        <time>2014-03-26T12:01:11Z</time>
      </trkpt>
      <trkpt lat="45.48817" lon="6.97044">
        <ele>2307.78</ele>
        <time>2014-03-26T12:01:25Z</time>
      </trkpt>
      <trkpt lat="45.48818" lon="6.97059">
        <ele>2309.22</ele>
        <time>2014-03-26T12:01:40Z</time>
      </trkpt>
      <trkpt lat="45.48818" lon="6.97061">
        <ele>2309.22</ele>
        <time>2014-03-26T12:01:42Z</time>
      </trkpt>
      <trkpt lat="45.48821" lon="6.97076">
        <ele>2309.7</ele>
        <time>2014-03-26T12:01:57Z</time>
      </trkpt>
      <trkpt lat="45.48824" lon="6.9709">
        <ele>2310.19</ele>
        <time>2014-03-26T12:02:10Z</time>
      </trkpt>
      <trkpt lat="45.48823" lon="6.97105">
        <ele>2310.67</ele>
        <time>2014-03-26T12:02:24Z</time>
      </trkpt>
      <trkpt lat="45.48824" lon="6.97119">
        <ele>2310.67</ele>
        <time>2014-03-26T12:02:33Z</time>
      </trkpt>
      <trkpt lat="45.48826" lon="6.97131">
        <ele>2310.67</ele>
        <time>2014-03-26T12:02:43Z</time>
      </trkpt>
      <trkpt lat="45.48828" lon="6.97152">
        <ele>2309.22</ele>
        <time>2014-03-26T12:02:58Z</time>
      </trkpt>
      <trkpt lat="45.48833" lon="6.97176">
        <ele>2310.67</ele>
        <time>2014-03-26T12:03:12Z</time>
      </trkpt>
      <trkpt lat="45.48834" lon="6.97192">
        <ele>2311.15</ele>
        <time>2014-03-26T12:03:25Z</time>
      </trkpt>
      <trkpt lat="45.48835" lon="6.9721">
        <ele>2310.67</ele>
        <time>2014-03-26T12:03:37Z</time>
      </trkpt>
      <trkpt lat="45.48841" lon="6.97226">
        <ele>2308.74</ele>
        <time>2014-03-26T12:03:51Z</time>
      </trkpt>
      <trkpt lat="45.48841" lon="6.97241">
        <ele>2309.7</ele>
        <time>2014-03-26T12:04:03Z</time>
      </trkpt>
      <trkpt lat="45.48845" lon="6.97262">
        <ele>2309.22</ele>
        <time>2014-03-26T12:04:18Z</time>
      </trkpt>
      <trkpt lat="45.48849" lon="6.97269">
        <ele>2308.26</ele>
        <time>2014-03-26T12:04:26Z</time>
      </trkpt>
      <trkpt lat="45.48851" lon="6.97272">
        <ele>2308.26</ele>
        <time>2014-03-26T12:04:30Z</time>
      </trkpt>
      <trkpt lat="45.48854" lon="6.97288">
        <ele>2308.74</ele>
        <time>2014-03-26T12:04:45Z</time>
      </trkpt>
      <trkpt lat="45.4886" lon="6.97302">
        <ele>2308.26</ele>
        <time>2014-03-26T12:04:59Z</time>
      </trkpt>
      <trkpt lat="45.48863" lon="6.9731">
        <ele>2310.19</ele>
        <time>2014-03-26T12:05:16Z</time>
      </trkpt>
      <trkpt lat="45.48857" lon="6.97322">
        <ele>2310.67</ele>
        <time>2014-03-26T12:05:30Z</time>
      </trkpt>
      <trkpt lat="45.48857" lon="6.97326">
        <ele>2310.19</ele>
        <time>2014-03-26T12:05:34Z</time>
      </trkpt>
      <trkpt lat="45.48857" lon="6.97333">
        <ele>2310.67</ele>
        <time>2014-03-26T12:05:39Z</time>
      </trkpt>
      <trkpt lat="45.48853" lon="6.97349">
        <ele>2310.19</ele>
        <time>2014-03-26T12:05:52Z</time>
      </trkpt>
      <trkpt lat="45.48852" lon="6.97351">
        <ele>2310.19</ele>
        <time>2014-03-26T12:05:53Z</time>
      </trkpt>
      <trkpt lat="45.48851" lon="6.97354">
        <ele>2310.67</ele>
        <time>2014-03-26T12:05:55Z</time>
      </trkpt>
      <trkpt lat="45.48851" lon="6.97357">
        <ele>2311.15</ele>
        <time>2014-03-26T12:05:57Z</time>
      </trkpt>
      <trkpt lat="45.48852" lon="6.97371">
        <ele>2311.15</ele>
        <time>2014-03-26T12:06:13Z</time>
      </trkpt>
      <trkpt lat="45.48852" lon="6.97384">
        <ele>2312.59</ele>
        <time>2014-03-26T12:06:25Z</time>
      </trkpt>
      <trkpt lat="45.4885" lon="6.97401">
        <ele>2313.07</ele>
        <time>2014-03-26T12:06:39Z</time>
      </trkpt>
      <trkpt lat="45.48846" lon="6.97414">
        <ele>2314.99</ele>
        <time>2014-03-26T12:06:51Z</time>
      </trkpt>
      <trkpt lat="45.48843" lon="6.9742">
        <ele>2315.95</ele>
        <time>2014-03-26T12:07:03Z</time>
      </trkpt>
      <trkpt lat="45.48844" lon="6.97415">
        <ele>2316.43</ele>
        <time>2014-03-26T12:07:30Z</time>
      </trkpt>
      <trkpt lat="45.48838" lon="6.97427">
        <ele>2318.84</ele>
        <time>2014-03-26T12:07:43Z</time>
      </trkpt>
      <trkpt lat="45.48837" lon="6.9743">
        <ele>2319.8</ele>
        <time>2014-03-26T12:07:46Z</time>
      </trkpt>
      <trkpt lat="45.48828" lon="6.97447">
        <ele>2322.2</ele>
        <time>2014-03-26T12:08:00Z</time>
      </trkpt>
      <trkpt lat="45.4882" lon="6.97458">
        <ele>2323.16</ele>
        <time>2014-03-26T12:08:15Z</time>
      </trkpt>
      <trkpt lat="45.48811" lon="6.9747">
        <ele>2322.2</ele>
        <time>2014-03-26T12:08:29Z</time>
      </trkpt>
      <trkpt lat="45.48801" lon="6.9748">
        <ele>2320.28</ele>
        <time>2014-03-26T12:08:43Z</time>
      </trkpt>
      <trkpt lat="45.48797" lon="6.97486">
        <ele>2320.28</ele>
        <time>2014-03-26T12:08:48Z</time>
      </trkpt>
      <trkpt lat="45.48786" lon="6.97497">
        <ele>2319.8</ele>
        <time>2014-03-26T12:09:03Z</time>
      </trkpt>
      <trkpt lat="45.48781" lon="6.975">
        <ele>2319.8</ele>
        <time>2014-03-26T12:09:08Z</time>
      </trkpt>
      <trkpt lat="45.48773" lon="6.97512">
        <ele>2318.84</ele>
        <time>2014-03-26T12:09:23Z</time>
      </trkpt>
      <trkpt lat="45.48774" lon="6.97508">
        <ele>2312.11</ele>
        <time>2014-03-26T12:09:47Z</time>
      </trkpt>
      <trkpt lat="45.48776" lon="6.9751">
        <ele>2310.19</ele>
        <time>2014-03-26T12:10:13Z</time>
      </trkpt>
      <trkpt lat="45.48778" lon="6.9751">
        <ele>2309.7</ele>
        <time>2014-03-26T12:10:39Z</time>
      </trkpt>
      <trkpt lat="45.48777" lon="6.9751">
        <ele>2309.22</ele>
        <time>2014-03-26T12:11:05Z</time>
      </trkpt>
      <trkpt lat="45.48777" lon="6.97511">
        <ele>2308.74</ele>
        <time>2014-03-26T12:11:28Z</time>
      </trkpt>
      <trkpt lat="45.48777" lon="6.97511">
        <ele>2309.22</ele>
        <time>2014-03-26T12:11:43Z</time>
      </trkpt>
      <trkpt lat="45.48777" lon="6.97516">
        <ele>2307.78</ele>
        <time>2014-03-26T12:12:01Z</time>
      </trkpt>
      <trkpt lat="45.48778" lon="6.97515">
        <ele>2307.78</ele>
        <time>2014-03-26T12:12:20Z</time>
      </trkpt>
      <trkpt lat="45.48778" lon="6.97513">
        <ele>2308.26</ele>
        <time>2014-03-26T12:12:41Z</time>
      </trkpt>
      <trkpt lat="45.48778" lon="6.97513">
        <ele>2307.3</ele>
        <time>2014-03-26T12:13:05Z</time>
      </trkpt>
      <trkpt lat="45.48777" lon="6.97514">
        <ele>2308.26</ele>
        <time>2014-03-26T12:13:30Z</time>
      </trkpt>
      <trkpt lat="45.48776" lon="6.97514">
        <ele>2307.3</ele>
        <time>2014-03-26T12:13:56Z</time>
      </trkpt>
      <trkpt lat="45.48776" lon="6.97512">
        <ele>2307.3</ele>
        <time>2014-03-26T12:14:26Z</time>
      </trkpt>
      <trkpt lat="45.48776" lon="6.97512">
        <ele>2307.3</ele>
        <time>2014-03-26T12:14:45Z</time>
      </trkpt>
      <trkpt lat="45.48775" lon="6.97512">
        <ele>2309.7</ele>
        <time>2014-03-26T12:15:04Z</time>
      </trkpt>
      <trkpt lat="45.48774" lon="6.97512">
        <ele>2310.67</ele>
        <time>2014-03-26T12:15:20Z</time>
      </trkpt>
      <trkpt lat="45.48776" lon="6.97512">
        <ele>2308.26</ele>
        <time>2014-03-26T12:15:34Z</time>
      </trkpt>
      <trkpt lat="45.48778" lon="6.97505">
        <ele>2306.82</ele>
        <time>2014-03-26T12:15:45Z</time>
      </trkpt>
      <trkpt lat="45.48778" lon="6.97502">
        <ele>2306.34</ele>
        <time>2014-03-26T12:15:47Z</time>
      </trkpt>
      <trkpt lat="45.48777" lon="6.975">
        <ele>2306.82</ele>
        <time>2014-03-26T12:15:49Z</time>
      </trkpt>
      <trkpt lat="45.48775" lon="6.97488">
        <ele>2305.86</ele>
        <time>2014-03-26T12:15:58Z</time>
      </trkpt>
      <trkpt lat="45.48777" lon="6.97466">
        <ele>2304.42</ele>
        <time>2014-03-26T12:16:14Z</time>
      </trkpt>
      <trkpt lat="45.48777" lon="6.97455">
        <ele>2304.42</ele>
        <time>2014-03-26T12:16:21Z</time>
      </trkpt>
      <trkpt lat="45.48773" lon="6.97435">
        <ele>2305.38</ele>
        <time>2014-03-26T12:16:37Z</time>
      </trkpt>
      <trkpt lat="45.48776" lon="6.97419">
        <ele>2304.9</ele>
        <time>2014-03-26T12:16:50Z</time>
      </trkpt>
      <trkpt lat="45.48789" lon="6.97396">
        <ele>2303.46</ele>
        <time>2014-03-26T12:17:08Z</time>
      </trkpt>
      <trkpt lat="45.48803" lon="6.97382">
        <ele>2302.49</ele>
        <time>2014-03-26T12:17:25Z</time>
      </trkpt>
      <trkpt lat="45.48817" lon="6.97371">
        <ele>2301.53</ele>
        <time>2014-03-26T12:17:40Z</time>
      </trkpt>
      <trkpt lat="45.4883" lon="6.9737">
        <ele>2301.05</ele>
        <time>2014-03-26T12:17:55Z</time>
      </trkpt>
      <trkpt lat="45.48832" lon="6.9737">
        <ele>2301.05</ele>
        <time>2014-03-26T12:17:58Z</time>
      </trkpt>
      <trkpt lat="45.48843" lon="6.97375">
        <ele>2301.53</ele>
        <time>2014-03-26T12:18:13Z</time>
      </trkpt>
      <trkpt lat="45.48844" lon="6.97387">
        <ele>2302.01</ele>
        <time>2014-03-26T12:18:26Z</time>
      </trkpt>
      <trkpt lat="45.4885" lon="6.97391">
        <ele>2302.98</ele>
        <time>2014-03-26T12:18:38Z</time>
      </trkpt>
      <trkpt lat="45.48852" lon="6.9739">
        <ele>2302.98</ele>
        <time>2014-03-26T12:18:40Z</time>
      </trkpt>
      <trkpt lat="45.48858" lon="6.97372">
        <ele>2301.53</ele>
        <time>2014-03-26T12:18:56Z</time>
      </trkpt>
      <trkpt lat="45.48856" lon="6.97369">
        <ele>2301.05</ele>
        <time>2014-03-26T12:19:01Z</time>
      </trkpt>
      <trkpt lat="45.48852" lon="6.9735">
        <ele>2301.53</ele>
        <time>2014-03-26T12:19:16Z</time>
      </trkpt>
      <trkpt lat="45.48845" lon="6.97334">
        <ele>2301.53</ele>
        <time>2014-03-26T12:19:32Z</time>
      </trkpt>
      <trkpt lat="45.48842" lon="6.97311">
        <ele>2300.09</ele>
        <time>2014-03-26T12:19:48Z</time>
      </trkpt>
      <trkpt lat="45.48838" lon="6.97291">
        <ele>2299.13</ele>
        <time>2014-03-26T12:20:03Z</time>
      </trkpt>
      <trkpt lat="45.48834" lon="6.97274">
        <ele>2299.61</ele>
        <time>2014-03-26T12:20:17Z</time>
      </trkpt>
      <trkpt lat="45.48832" lon="6.97272">
        <ele>2299.61</ele>
        <time>2014-03-26T12:20:20Z</time>
      </trkpt>
      <trkpt lat="45.48826" lon="6.97251">
        <ele>2300.57</ele>
        <time>2014-03-26T12:20:35Z</time>
      </trkpt>
      <trkpt lat="45.48818" lon="6.97233">
        <ele>2300.09</ele>
        <time>2014-03-26T12:20:52Z</time>
      </trkpt>
      <trkpt lat="45.48811" lon="6.97217">
        <ele>2301.05</ele>
        <time>2014-03-26T12:21:07Z</time>
      </trkpt>
      <trkpt lat="45.48807" lon="6.97199">
        <ele>2300.57</ele>
        <time>2014-03-26T12:21:22Z</time>
      </trkpt>
      <trkpt lat="45.48805" lon="6.97194">
        <ele>2300.57</ele>
        <time>2014-03-26T12:21:37Z</time>
      </trkpt>
      <trkpt lat="45.48804" lon="6.97195">
        <ele>2301.53</ele>
        <time>2014-03-26T12:22:05Z</time>
      </trkpt>
      <trkpt lat="45.48805" lon="6.97193">
        <ele>2300.09</ele>
        <time>2014-03-26T12:22:29Z</time>
      </trkpt>
      <trkpt lat="45.48805" lon="6.97194">
        <ele>2301.05</ele>
        <time>2014-03-26T12:22:51Z</time>
      </trkpt>
      <trkpt lat="45.48804" lon="6.97194">
        <ele>2299.13</ele>
        <time>2014-03-26T12:23:11Z</time>
      </trkpt>
      <trkpt lat="45.48803" lon="6.9719">
        <ele>2298.65</ele>
        <time>2014-03-26T12:23:29Z</time>
      </trkpt>
      <trkpt lat="45.48798" lon="6.97174">
        <ele>2299.61</ele>
        <time>2014-03-26T12:23:43Z</time>
      </trkpt>
      <trkpt lat="45.48794" lon="6.97159">
        <ele>2299.61</ele>
        <time>2014-03-26T12:23:57Z</time>
      </trkpt>
      <trkpt lat="45.48787" lon="6.97141">
        <ele>2299.13</ele>
        <time>2014-03-26T12:24:12Z</time>
      </trkpt>
      <trkpt lat="45.48783" lon="6.9713">
        <ele>2298.65</ele>
        <time>2014-03-26T12:24:21Z</time>
      </trkpt>
      <trkpt lat="45.48777" lon="6.97112">
        <ele>2298.65</ele>
        <time>2014-03-26T12:24:36Z</time>
      </trkpt>
      <trkpt lat="45.4877" lon="6.97096">
        <ele>2300.09</ele>
        <time>2014-03-26T12:24:51Z</time>
      </trkpt>
      <trkpt lat="45.48766" lon="6.9709">
        <ele>2301.05</ele>
        <time>2014-03-26T12:25:03Z</time>
      </trkpt>
      <trkpt lat="45.48764" lon="6.97086">
        <ele>2301.05</ele>
        <time>2014-03-26T12:25:20Z</time>
      </trkpt>
      <trkpt lat="45.48756" lon="6.97068">
        <ele>2300.09</ele>
        <time>2014-03-26T12:25:36Z</time>
      </trkpt>
      <trkpt lat="45.48747" lon="6.9705">
        <ele>2299.13</ele>
        <time>2014-03-26T12:25:51Z</time>
      </trkpt>
      <trkpt lat="45.48745" lon="6.97045">
        <ele>2299.13</ele>
        <time>2014-03-26T12:25:57Z</time>
      </trkpt>
      <trkpt lat="45.48734" lon="6.97036">
        <ele>2299.13</ele>
        <time>2014-03-26T12:26:13Z</time>
      </trkpt>
      <trkpt lat="45.48727" lon="6.97023">
        <ele>2301.53</ele>
        <time>2014-03-26T12:26:28Z</time>
      </trkpt>
      <trkpt lat="45.48721" lon="6.97012">
        <ele>2303.94</ele>
        <time>2014-03-26T12:26:45Z</time>
      </trkpt>
      <trkpt lat="45.48714" lon="6.97">
        <ele>2303.94</ele>
        <time>2014-03-26T12:27:01Z</time>
      </trkpt>
      <trkpt lat="45.48709" lon="6.96988">
        <ele>2303.94</ele>
        <time>2014-03-26T12:27:15Z</time>
      </trkpt>
      <trkpt lat="45.48697" lon="6.96984">
        <ele>2304.9</ele>
        <time>2014-03-26T12:27:28Z</time>
      </trkpt>
      <trkpt lat="45.48692" lon="6.96987">
        <ele>2305.38</ele>
        <time>2014-03-26T12:27:42Z</time>
      </trkpt>
      <trkpt lat="45.48691" lon="6.96989">
        <ele>2304.42</ele>
        <time>2014-03-26T12:28:04Z</time>
      </trkpt>
      <trkpt lat="45.48692" lon="6.96986">
        <ele>2304.9</ele>
        <time>2014-03-26T12:28:27Z</time>
      </trkpt>
      <trkpt lat="45.48692" lon="6.96985">
        <ele>2304.9</ele>
        <time>2014-03-26T12:28:43Z</time>
      </trkpt>
      <trkpt lat="45.48693" lon="6.96973">
        <ele>2303.94</ele>
        <time>2014-03-26T12:28:56Z</time>
      </trkpt>
      <trkpt lat="45.48694" lon="6.9696">
        <ele>2302.98</ele>
        <time>2014-03-26T12:29:10Z</time>
      </trkpt>
      <trkpt lat="45.48692" lon="6.96955">
        <ele>2303.94</ele>
        <time>2014-03-26T12:29:28Z</time>
      </trkpt>
      <trkpt lat="45.48691" lon="6.96952">
        <ele>2302.01</ele>
        <time>2014-03-26T12:29:55Z</time>
      </trkpt>
      <trkpt lat="45.48689" lon="6.96948">
        <ele>2301.53</ele>
        <time>2014-03-26T12:29:58Z</time>
      </trkpt>
      <trkpt lat="45.48683" lon="6.96937">
        <ele>2298.17</ele>
        <time>2014-03-26T12:30:12Z</time>
      </trkpt>
      <trkpt lat="45.4868" lon="6.96934">
        <ele>2297.21</ele>
        <time>2014-03-26T12:30:16Z</time>
      </trkpt>
      <trkpt lat="45.48674" lon="6.96921">
        <ele>2294.8</ele>
        <time>2014-03-26T12:30:29Z</time>
      </trkpt>
      <trkpt lat="45.48667" lon="6.96908">
        <ele>2291.92</ele>
        <time>2014-03-26T12:30:43Z</time>
      </trkpt>
      <trkpt lat="45.48662" lon="6.96899">
        <ele>2290.48</ele>
        <time>2014-03-26T12:30:51Z</time>
      </trkpt>
      <trkpt lat="45.4865" lon="6.96882">
        <ele>2290.48</ele>
        <time>2014-03-26T12:31:07Z</time>
      </trkpt>
      <trkpt lat="45.48644" lon="6.96875">
        <ele>2290.96</ele>
        <time>2014-03-26T12:31:15Z</time>
      </trkpt>
      <trkpt lat="45.48637" lon="6.96862">
        <ele>2289.52</ele>
        <time>2014-03-26T12:31:31Z</time>
      </trkpt>
      <trkpt lat="45.48636" lon="6.9686">
        <ele>2290</ele>
        <time>2014-03-26T12:31:51Z</time>
      </trkpt>
      <trkpt lat="45.48635" lon="6.96857">
        <ele>2290.96</ele>
        <time>2014-03-26T12:32:07Z</time>
      </trkpt>
      <trkpt lat="45.48634" lon="6.96852">
        <ele>2290</ele>
        <time>2014-03-26T12:32:24Z</time>
      </trkpt>
      <trkpt lat="45.48635" lon="6.96851">
        <ele>2288.56</ele>
        <time>2014-03-26T12:32:40Z</time>
      </trkpt>
      <trkpt lat="45.48638" lon="6.96847">
        <ele>2286.63</ele>
        <time>2014-03-26T12:32:47Z</time>
      </trkpt>
      <trkpt lat="45.48642" lon="6.96843">
        <ele>2284.71</ele>
        <time>2014-03-26T12:32:51Z</time>
      </trkpt>
      <trkpt lat="45.48642" lon="6.96833">
        <ele>2283.27</ele>
        <time>2014-03-26T12:32:56Z</time>
      </trkpt>
      <trkpt lat="45.48637" lon="6.96827">
        <ele>2283.27</ele>
        <time>2014-03-26T12:33:06Z</time>
      </trkpt>
      <trkpt lat="45.48631" lon="6.96808">
        <ele>2281.35</ele>
        <time>2014-03-26T12:33:21Z</time>
      </trkpt>
      <trkpt lat="45.48626" lon="6.96789">
        <ele>2280.87</ele>
        <time>2014-03-26T12:33:36Z</time>
      </trkpt>
      <trkpt lat="45.48619" lon="6.96766">
        <ele>2279.9</ele>
        <time>2014-03-26T12:33:53Z</time>
      </trkpt>
      <trkpt lat="45.48617" lon="6.96764">
        <ele>2279.42</ele>
        <time>2014-03-26T12:34:05Z</time>
      </trkpt>
      <trkpt lat="45.48617" lon="6.96759">
        <ele>2280.87</ele>
        <time>2014-03-26T12:34:21Z</time>
      </trkpt>
      <trkpt lat="45.48616" lon="6.96759">
        <ele>2283.27</ele>
        <time>2014-03-26T12:34:36Z</time>
      </trkpt>
      <trkpt lat="45.48617" lon="6.96761">
        <ele>2281.83</ele>
        <time>2014-03-26T12:34:49Z</time>
      </trkpt>
      <trkpt lat="45.48614" lon="6.96753">
        <ele>2280.38</ele>
        <time>2014-03-26T12:35:06Z</time>
      </trkpt>
      <trkpt lat="45.48612" lon="6.96751">
        <ele>2280.87</ele>
        <time>2014-03-26T12:35:08Z</time>
      </trkpt>
      <trkpt lat="45.486" lon="6.96737">
        <ele>2279.9</ele>
        <time>2014-03-26T12:35:24Z</time>
      </trkpt>
      <trkpt lat="45.48583" lon="6.96729">
        <ele>2278.94</ele>
        <time>2014-03-26T12:35:39Z</time>
      </trkpt>
      <trkpt lat="45.48573" lon="6.96713">
        <ele>2277.02</ele>
        <time>2014-03-26T12:35:52Z</time>
      </trkpt>
      <trkpt lat="45.48563" lon="6.96695">
        <ele>2277.02</ele>
        <time>2014-03-26T12:36:09Z</time>
      </trkpt>
      <trkpt lat="45.48562" lon="6.96692">
        <ele>2277.02</ele>
        <time>2014-03-26T12:36:11Z</time>
      </trkpt>
      <trkpt lat="45.48553" lon="6.96674">
        <ele>2275.1</ele>
        <time>2014-03-26T12:36:25Z</time>
      </trkpt>
      <trkpt lat="45.48539" lon="6.96661">
        <ele>2272.69</ele>
        <time>2014-03-26T12:36:40Z</time>
      </trkpt>
      <trkpt lat="45.48528" lon="6.9665">
        <ele>2271.73</ele>
        <time>2014-03-26T12:36:55Z</time>
      </trkpt>
      <trkpt lat="45.48526" lon="6.96652">
        <ele>2272.21</ele>
        <time>2014-03-26T12:37:14Z</time>
      </trkpt>
      <trkpt lat="45.48526" lon="6.9665">
        <ele>2272.21</ele>
        <time>2014-03-26T12:37:24Z</time>
      </trkpt>
      <trkpt lat="45.48524" lon="6.9665">
        <ele>2272.21</ele>
        <time>2014-03-26T12:37:26Z</time>
      </trkpt>
      <trkpt lat="45.48517" lon="6.96651">
        <ele>2271.73</ele>
        <time>2014-03-26T12:37:39Z</time>
      </trkpt>
      <trkpt lat="45.48513" lon="6.96653">
        <ele>2271.73</ele>
        <time>2014-03-26T12:37:44Z</time>
      </trkpt>
      <trkpt lat="45.48504" lon="6.96652">
        <ele>2272.21</ele>
        <time>2014-03-26T12:38:00Z</time>
      </trkpt>
      <trkpt lat="45.48506" lon="6.96651">
        <ele>2271.25</ele>
        <time>2014-03-26T12:38:18Z</time>
      </trkpt>
      <trkpt lat="45.48504" lon="6.96649">
        <ele>2269.81</ele>
        <time>2014-03-26T12:38:45Z</time>
      </trkpt>
      <trkpt lat="45.48503" lon="6.9665">
        <ele>2270.77</ele>
        <time>2014-03-26T12:39:05Z</time>
      </trkpt>
      <trkpt lat="45.48503" lon="6.96651">
        <ele>2268.85</ele>
        <time>2014-03-26T12:39:30Z</time>
      </trkpt>
      <trkpt lat="45.48497" lon="6.96653">
        <ele>2268.37</ele>
        <time>2014-03-26T12:39:48Z</time>
      </trkpt>
      <trkpt lat="45.4849" lon="6.96656">
        <ele>2269.33</ele>
        <time>2014-03-26T12:40:07Z</time>
      </trkpt>
      <trkpt lat="45.48484" lon="6.96656">
        <ele>2268.37</ele>
        <time>2014-03-26T12:40:21Z</time>
      </trkpt>
      <trkpt lat="45.48475" lon="6.96657">
        <ele>2266.45</ele>
        <time>2014-03-26T12:40:36Z</time>
      </trkpt>
      <trkpt lat="45.48464" lon="6.96658">
        <ele>2267.89</ele>
        <time>2014-03-26T12:40:49Z</time>
      </trkpt>
      <trkpt lat="45.48464" lon="6.96659">
        <ele>2267.89</ele>
        <time>2014-03-26T12:41:06Z</time>
      </trkpt>
      <trkpt lat="45.48459" lon="6.96659">
        <ele>2268.85</ele>
        <time>2014-03-26T12:41:17Z</time>
      </trkpt>
      <trkpt lat="45.48451" lon="6.96665">
        <ele>2268.37</ele>
        <time>2014-03-26T12:41:27Z</time>
      </trkpt>
      <trkpt lat="45.48437" lon="6.96674">
        <ele>2266.45</ele>
        <time>2014-03-26T12:41:43Z</time>
      </trkpt>
      <trkpt lat="45.48436" lon="6.96674">
        <ele>2266.45</ele>
        <time>2014-03-26T12:41:44Z</time>
      </trkpt>
      <trkpt lat="45.48431" lon="6.96675">
        <ele>2267.41</ele>
        <time>2014-03-26T12:41:49Z</time>
      </trkpt>
      <trkpt lat="45.48426" lon="6.96677">
        <ele>2267.41</ele>
        <time>2014-03-26T12:41:54Z</time>
      </trkpt>
      <trkpt lat="45.48425" lon="6.96677">
        <ele>2267.89</ele>
        <time>2014-03-26T12:41:56Z</time>
      </trkpt>
      <trkpt lat="45.48423" lon="6.96677">
        <ele>2267.89</ele>
        <time>2014-03-26T12:41:58Z</time>
      </trkpt>
      <trkpt lat="45.4841" lon="6.96683">
        <ele>2265.96</ele>
        <time>2014-03-26T12:42:13Z</time>
      </trkpt>
      <trkpt lat="45.48402" lon="6.96686">
        <ele>2264.04</ele>
        <time>2014-03-26T12:42:22Z</time>
      </trkpt>
      <trkpt lat="45.48399" lon="6.96686">
        <ele>2263.56</ele>
        <time>2014-03-26T12:42:27Z</time>
      </trkpt>
      <trkpt lat="45.48384" lon="6.9669">
        <ele>2264.04</ele>
        <time>2014-03-26T12:42:42Z</time>
      </trkpt>
      <trkpt lat="45.48384" lon="6.9669">
        <ele>2263.56</ele>
        <time>2014-03-26T12:42:43Z</time>
      </trkpt>
      <trkpt lat="45.48373" lon="6.96683">
        <ele>2259.72</ele>
        <time>2014-03-26T12:42:57Z</time>
      </trkpt>
      <trkpt lat="45.4837" lon="6.96673">
        <ele>2256.83</ele>
        <time>2014-03-26T12:43:11Z</time>
      </trkpt>
      <trkpt lat="45.48372" lon="6.96669">
        <ele>2253.95</ele>
        <time>2014-03-26T12:43:23Z</time>
      </trkpt>
      <trkpt lat="45.48379" lon="6.96665">
        <ele>2256.35</ele>
        <time>2014-03-26T12:43:44Z</time>
      </trkpt>
      <trkpt lat="45.4838" lon="6.96662">
        <ele>2258.27</ele>
        <time>2014-03-26T12:43:59Z</time>
      </trkpt>
      <trkpt lat="45.48381" lon="6.96657">
        <ele>2258.75</ele>
        <time>2014-03-26T12:44:15Z</time>
      </trkpt>
      <trkpt lat="45.48383" lon="6.96651">
        <ele>2258.27</ele>
        <time>2014-03-26T12:44:29Z</time>
      </trkpt>
      <trkpt lat="45.48384" lon="6.96647">
        <ele>2251.06</ele>
        <time>2014-03-26T12:44:53Z</time>
      </trkpt>
      <trkpt lat="45.48381" lon="6.96648">
        <ele>2246.26</ele>
        <time>2014-03-26T12:45:24Z</time>
      </trkpt>
      <trkpt lat="45.48382" lon="6.9665">
        <ele>2244.82</ele>
        <time>2014-03-26T12:45:49Z</time>
      </trkpt>
      <trkpt lat="45.48382" lon="6.96645">
        <ele>2245.78</ele>
        <time>2014-03-26T12:46:18Z</time>
      </trkpt>
      <trkpt lat="45.48386" lon="6.96648">
        <ele>2245.3</ele>
        <time>2014-03-26T12:46:37Z</time>
      </trkpt>
      <trkpt lat="45.48386" lon="6.96645">
        <ele>2246.26</ele>
        <time>2014-03-26T12:46:52Z</time>
      </trkpt>
      <trkpt lat="45.48394" lon="6.96634">
        <ele>2247.7</ele>
        <time>2014-03-26T12:47:07Z</time>
      </trkpt>
      <trkpt lat="45.48396" lon="6.96629">
        <ele>2248.66</ele>
        <time>2014-03-26T12:47:12Z</time>
      </trkpt>
      <trkpt lat="45.48402" lon="6.96615">
        <ele>2249.62</ele>
        <time>2014-03-26T12:47:27Z</time>
      </trkpt>
      <trkpt lat="45.48404" lon="6.96602">
        <ele>2250.1</ele>
        <time>2014-03-26T12:47:39Z</time>
      </trkpt>
      <trkpt lat="45.48403" lon="6.96587">
        <ele>2248.18</ele>
        <time>2014-03-26T12:47:53Z</time>
      </trkpt>
      <trkpt lat="45.48404" lon="6.96581">
        <ele>2247.7</ele>
        <time>2014-03-26T12:47:58Z</time>
      </trkpt>
      <trkpt lat="45.48403" lon="6.96565">
        <ele>2245.78</ele>
        <time>2014-03-26T12:48:13Z</time>
      </trkpt>
      <trkpt lat="45.48404" lon="6.96548">
        <ele>2243.85</ele>
        <time>2014-03-26T12:48:28Z</time>
      </trkpt>
      <trkpt lat="45.48403" lon="6.9654">
        <ele>2240.01</ele>
        <time>2014-03-26T12:48:41Z</time>
      </trkpt>
      <trkpt lat="45.48405" lon="6.96539">
        <ele>2236.64</ele>
        <time>2014-03-26T12:49:08Z</time>
      </trkpt>
      <trkpt lat="45.48402" lon="6.96537">
        <ele>2237.13</ele>
        <time>2014-03-26T12:49:37Z</time>
      </trkpt>
      <trkpt lat="45.48402" lon="6.9653">
        <ele>2237.13</ele>
        <time>2014-03-26T12:49:51Z</time>
      </trkpt>
      <trkpt lat="45.484" lon="6.9651">
        <ele>2234.24</ele>
        <time>2014-03-26T12:50:05Z</time>
      </trkpt>
      <trkpt lat="45.484" lon="6.96497">
        <ele>2230.4</ele>
        <time>2014-03-26T12:50:17Z</time>
      </trkpt>
      <trkpt lat="45.48397" lon="6.96481">
        <ele>2227.51</ele>
        <time>2014-03-26T12:50:31Z</time>
      </trkpt>
      <trkpt lat="45.48396" lon="6.9648">
        <ele>2220.78</ele>
        <time>2014-03-26T12:50:46Z</time>
      </trkpt>
      <trkpt lat="45.48396" lon="6.96469">
        <ele>2216.94</ele>
        <time>2014-03-26T12:51:01Z</time>
      </trkpt>
      <trkpt lat="45.48396" lon="6.96452">
        <ele>2214.53</ele>
        <time>2014-03-26T12:51:14Z</time>
      </trkpt>
      <trkpt lat="45.48395" lon="6.96443">
        <ele>2213.09</ele>
        <time>2014-03-26T12:51:21Z</time>
      </trkpt>
      <trkpt lat="45.48394" lon="6.96439">
        <ele>2212.61</ele>
        <time>2014-03-26T12:51:24Z</time>
      </trkpt>
      <trkpt lat="45.48393" lon="6.96437">
        <ele>2211.65</ele>
        <time>2014-03-26T12:51:26Z</time>
      </trkpt>
      <trkpt lat="45.4839" lon="6.96428">
        <ele>2210.69</ele>
        <time>2014-03-26T12:51:35Z</time>
      </trkpt>
      <trkpt lat="45.48385" lon="6.96414">
        <ele>2208.77</ele>
        <time>2014-03-26T12:51:49Z</time>
      </trkpt>
      <trkpt lat="45.48382" lon="6.96413">
        <ele>2208.29</ele>
        <time>2014-03-26T12:52:12Z</time>
      </trkpt>
      <trkpt lat="45.48381" lon="6.96414">
        <ele>2208.29</ele>
        <time>2014-03-26T12:52:30Z</time>
      </trkpt>
      <trkpt lat="45.48381" lon="6.96416">
        <ele>2203.48</ele>
        <time>2014-03-26T12:52:44Z</time>
      </trkpt>
      <trkpt lat="45.48379" lon="6.96418">
        <ele>2204.44</ele>
        <time>2014-03-26T12:53:07Z</time>
      </trkpt>
      <trkpt lat="45.48375" lon="6.96419">
        <ele>2201.08</ele>
        <time>2014-03-26T12:53:34Z</time>
      </trkpt>
      <trkpt lat="45.48379" lon="6.96417">
        <ele>2202.52</ele>
        <time>2014-03-26T12:53:57Z</time>
      </trkpt>
      <trkpt lat="45.48382" lon="6.96413">
        <ele>2203.48</ele>
        <time>2014-03-26T12:54:17Z</time>
      </trkpt>
      <trkpt lat="45.48386" lon="6.96407">
        <ele>2203</ele>
        <time>2014-03-26T12:54:41Z</time>
      </trkpt>
      <trkpt lat="45.48384" lon="6.96405">
        <ele>2206.84</ele>
        <time>2014-03-26T12:55:00Z</time>
      </trkpt>
      <trkpt lat="45.48383" lon="6.96408">
        <ele>2207.32</ele>
        <time>2014-03-26T12:55:21Z</time>
      </trkpt>
      <trkpt lat="45.48385" lon="6.9641">
        <ele>2208.77</ele>
        <time>2014-03-26T12:55:37Z</time>
      </trkpt>
      <trkpt lat="45.48386" lon="6.964">
        <ele>2207.32</ele>
        <time>2014-03-26T12:55:51Z</time>
      </trkpt>
      <trkpt lat="45.48385" lon="6.96382">
        <ele>2205.88</ele>
        <time>2014-03-26T12:56:05Z</time>
      </trkpt>
      <trkpt lat="45.48387" lon="6.96359">
        <ele>2203.48</ele>
        <time>2014-03-26T12:56:23Z</time>
      </trkpt>
      <trkpt lat="45.48389" lon="6.96338">
        <ele>2198.19</ele>
        <time>2014-03-26T12:56:36Z</time>
      </trkpt>
      <trkpt lat="45.4839" lon="6.96323">
        <ele>2194.83</ele>
        <time>2014-03-26T12:56:49Z</time>
      </trkpt>
      <trkpt lat="45.48391" lon="6.96318">
        <ele>2195.31</ele>
        <time>2014-03-26T12:56:54Z</time>
      </trkpt>
      <trkpt lat="45.4839" lon="6.96305">
        <ele>2194.35</ele>
        <time>2014-03-26T12:57:05Z</time>
      </trkpt>
      <trkpt lat="45.48388" lon="6.96287">
        <ele>2190.98</ele>
        <time>2014-03-26T12:57:18Z</time>
      </trkpt>
      <trkpt lat="45.48388" lon="6.96282">
        <ele>2190.5</ele>
        <time>2014-03-26T12:57:22Z</time>
      </trkpt>
      <trkpt lat="45.48385" lon="6.96261">
        <ele>2186.18</ele>
        <time>2014-03-26T12:57:37Z</time>
      </trkpt>
      <trkpt lat="45.48383" lon="6.96252">
        <ele>2185.21</ele>
        <time>2014-03-26T12:57:43Z</time>
      </trkpt>
      <trkpt lat="45.48384" lon="6.96233">
        <ele>2184.25</ele>
        <time>2014-03-26T12:57:58Z</time>
      </trkpt>
      <trkpt lat="45.48383" lon="6.96215">
        <ele>2181.37</ele>
        <time>2014-03-26T12:58:10Z</time>
      </trkpt>
      <trkpt lat="45.48384" lon="6.96212">
        <ele>2181.37</ele>
        <time>2014-03-26T12:58:12Z</time>
      </trkpt>
      <trkpt lat="45.4838" lon="6.96196">
        <ele>2180.89</ele>
        <time>2014-03-26T12:58:22Z</time>
      </trkpt>
      <trkpt lat="45.4838" lon="6.96174">
        <ele>2179.45</ele>
        <time>2014-03-26T12:58:37Z</time>
      </trkpt>
      <trkpt lat="45.4838" lon="6.96172">
        <ele>2179.45</ele>
        <time>2014-03-26T12:58:38Z</time>
      </trkpt>
      <trkpt lat="45.4838" lon="6.96169">
        <ele>2179.45</ele>
        <time>2014-03-26T12:58:40Z</time>
      </trkpt>
      <trkpt lat="45.48379" lon="6.96151">
        <ele>2178</ele>
        <time>2014-03-26T12:58:53Z</time>
      </trkpt>
      <trkpt lat="45.48374" lon="6.96131">
        <ele>2176.08</ele>
        <time>2014-03-26T12:59:10Z</time>
      </trkpt>
      <trkpt lat="45.48372" lon="6.96121">
        <ele>2174.64</ele>
        <time>2014-03-26T12:59:22Z</time>
      </trkpt>
      <trkpt lat="45.48368" lon="6.96108">
        <ele>2173.2</ele>
        <time>2014-03-26T12:59:34Z</time>
      </trkpt>
      <trkpt lat="45.48361" lon="6.96093">
        <ele>2170.31</ele>
        <time>2014-03-26T12:59:50Z</time>
      </trkpt>
      <trkpt lat="45.48352" lon="6.96081">
        <ele>2165.51</ele>
        <time>2014-03-26T13:00:06Z</time>
      </trkpt>
      <trkpt lat="45.48344" lon="6.96076">
        <ele>2165.03</ele>
        <time>2014-03-26T13:00:18Z</time>
      </trkpt>
      <trkpt lat="45.48338" lon="6.96073">
        <ele>2163.58</ele>
        <time>2014-03-26T13:00:24Z</time>
      </trkpt>
      <trkpt lat="45.48334" lon="6.96071">
        <ele>2162.62</ele>
        <time>2014-03-26T13:00:34Z</time>
      </trkpt>
      <trkpt lat="45.48334" lon="6.96072">
        <ele>2163.1</ele>
        <time>2014-03-26T13:00:51Z</time>
      </trkpt>
      <trkpt lat="45.48336" lon="6.96073">
        <ele>2165.51</ele>
        <time>2014-03-26T13:01:22Z</time>
      </trkpt>
      <trkpt lat="45.48336" lon="6.96071">
        <ele>2164.55</ele>
        <time>2014-03-26T13:01:49Z</time>
      </trkpt>
      <trkpt lat="45.48334" lon="6.96072">
        <ele>2165.51</ele>
        <time>2014-03-26T13:02:09Z</time>
      </trkpt>
      <trkpt lat="45.48334" lon="6.96072">
        <ele>2166.47</ele>
        <time>2014-03-26T13:02:23Z</time>
      </trkpt>
      <trkpt lat="45.48333" lon="6.96072">
        <ele>2166.47</ele>
        <time>2014-03-26T13:02:48Z</time>
      </trkpt>
      <trkpt lat="45.48332" lon="6.96075">
        <ele>2165.51</ele>
        <time>2014-03-26T13:03:14Z</time>
      </trkpt>
      <trkpt lat="45.48331" lon="6.96072">
        <ele>2165.03</ele>
        <time>2014-03-26T13:03:28Z</time>
      </trkpt>
      <trkpt lat="45.48333" lon="6.96073">
        <ele>2162.14</ele>
        <time>2014-03-26T13:03:46Z</time>
      </trkpt>
      <trkpt lat="45.48331" lon="6.96075">
        <ele>2158.3</ele>
        <time>2014-03-26T13:04:09Z</time>
      </trkpt>
      <trkpt lat="45.48331" lon="6.96072">
        <ele>2157.34</ele>
        <time>2014-03-26T13:04:34Z</time>
      </trkpt>
      <trkpt lat="45.48334" lon="6.96073">
        <ele>2156.37</ele>
        <time>2014-03-26T13:04:58Z</time>
      </trkpt>
      <trkpt lat="45.48335" lon="6.9607">
        <ele>2159.26</ele>
        <time>2014-03-26T13:05:20Z</time>
      </trkpt>
      <trkpt lat="45.48336" lon="6.96072">
        <ele>2156.86</ele>
        <time>2014-03-26T13:05:47Z</time>
      </trkpt>
      <trkpt lat="45.48334" lon="6.96072">
        <ele>2159.74</ele>
        <time>2014-03-26T13:06:10Z</time>
      </trkpt>
      <trkpt lat="45.48329" lon="6.96067">
        <ele>2160.7</ele>
        <time>2014-03-26T13:06:25Z</time>
      </trkpt>
      <trkpt lat="45.48324" lon="6.96062">
        <ele>2162.14</ele>
        <time>2014-03-26T13:06:33Z</time>
      </trkpt>
      <trkpt lat="45.48317" lon="6.96048">
        <ele>2161.66</ele>
        <time>2014-03-26T13:06:48Z</time>
      </trkpt>
      <trkpt lat="45.4831" lon="6.96035">
        <ele>2161.18</ele>
        <time>2014-03-26T13:07:03Z</time>
      </trkpt>
      <trkpt lat="45.48304" lon="6.9602">
        <ele>2159.74</ele>
        <time>2014-03-26T13:07:17Z</time>
      </trkpt>
      <trkpt lat="45.48299" lon="6.96008">
        <ele>2158.78</ele>
        <time>2014-03-26T13:07:29Z</time>
      </trkpt>
      <trkpt lat="45.48295" lon="6.95999">
        <ele>2158.78</ele>
        <time>2014-03-26T13:07:37Z</time>
      </trkpt>
      <trkpt lat="45.48293" lon="6.95993">
        <ele>2158.3</ele>
        <time>2014-03-26T13:07:42Z</time>
      </trkpt>
      <trkpt lat="45.48285" lon="6.95976">
        <ele>2156.37</ele>
        <time>2014-03-26T13:07:57Z</time>
      </trkpt>
      <trkpt lat="45.48278" lon="6.95963">
        <ele>2154.93</ele>
        <time>2014-03-26T13:08:08Z</time>
      </trkpt>
      <trkpt lat="45.48275" lon="6.95955">
        <ele>2153.97</ele>
        <time>2014-03-26T13:08:14Z</time>
      </trkpt>
      <trkpt lat="45.48267" lon="6.95933">
        <ele>2154.93</ele>
        <time>2014-03-26T13:08:29Z</time>
      </trkpt>
      <trkpt lat="45.48263" lon="6.95911">
        <ele>2153.97</ele>
        <time>2014-03-26T13:08:44Z</time>
      </trkpt>
      <trkpt lat="45.4826" lon="6.95888">
        <ele>2151.09</ele>
        <time>2014-03-26T13:08:58Z</time>
      </trkpt>
      <trkpt lat="45.48256" lon="6.95869">
        <ele>2148.68</ele>
        <time>2014-03-26T13:09:11Z</time>
      </trkpt>
      <trkpt lat="45.48254" lon="6.95844">
        <ele>2147.24</ele>
        <time>2014-03-26T13:09:27Z</time>
      </trkpt>
      <trkpt lat="45.48253" lon="6.95826">
        <ele>2144.84</ele>
        <time>2014-03-26T13:09:37Z</time>
      </trkpt>
      <trkpt lat="45.48253" lon="6.95813">
        <ele>2143.4</ele>
        <time>2014-03-26T13:09:46Z</time>
      </trkpt>
      <trkpt lat="45.48252" lon="6.95803">
        <ele>2141.47</ele>
        <time>2014-03-26T13:09:59Z</time>
      </trkpt>
      <trkpt lat="45.48251" lon="6.95801">
        <ele>2140.03</ele>
        <time>2014-03-26T13:10:27Z</time>
      </trkpt>
      <trkpt lat="45.48252" lon="6.95803">
        <ele>2139.55</ele>
        <time>2014-03-26T13:10:54Z</time>
      </trkpt>
      <trkpt lat="45.48252" lon="6.95802">
        <ele>2137.15</ele>
        <time>2014-03-26T13:11:14Z</time>
      </trkpt>
      <trkpt lat="45.48252" lon="6.95803">
        <ele>2140.99</ele>
        <time>2014-03-26T13:11:38Z</time>
      </trkpt>
      <trkpt lat="45.48252" lon="6.95803">
        <ele>2139.07</ele>
        <time>2014-03-26T13:11:56Z</time>
      </trkpt>
      <trkpt lat="45.48252" lon="6.95803">
        <ele>2137.15</ele>
        <time>2014-03-26T13:12:21Z</time>
      </trkpt>
      <trkpt lat="45.48253" lon="6.95804">
        <ele>2136.19</ele>
        <time>2014-03-26T13:12:45Z</time>
      </trkpt>
      <trkpt lat="45.48253" lon="6.95802">
        <ele>2137.15</ele>
        <time>2014-03-26T13:13:10Z</time>
      </trkpt>
      <trkpt lat="45.48252" lon="6.95803">
        <ele>2135.71</ele>
        <time>2014-03-26T13:13:27Z</time>
      </trkpt>
      <trkpt lat="45.48251" lon="6.95803">
        <ele>2137.63</ele>
        <time>2014-03-26T13:13:50Z</time>
      </trkpt>
      <trkpt lat="45.48252" lon="6.95804">
        <ele>2137.63</ele>
        <time>2014-03-26T13:14:10Z</time>
      </trkpt>
      <trkpt lat="45.48252" lon="6.95805">
        <ele>2137.63</ele>
        <time>2014-03-26T13:14:42Z</time>
      </trkpt>
      <trkpt lat="45.48251" lon="6.95806">
        <ele>2133.3</ele>
        <time>2014-03-26T13:15:01Z</time>
      </trkpt>
      <trkpt lat="45.48253" lon="6.95793">
        <ele>2134.74</ele>
        <time>2014-03-26T13:15:12Z</time>
      </trkpt>
      <trkpt lat="45.48253" lon="6.95788">
        <ele>2136.19</ele>
        <time>2014-03-26T13:15:16Z</time>
      </trkpt>
      <trkpt lat="45.48254" lon="6.95782">
        <ele>2136.67</ele>
        <time>2014-03-26T13:15:20Z</time>
      </trkpt>
      <trkpt lat="45.48254" lon="6.9577">
        <ele>2137.15</ele>
        <time>2014-03-26T13:15:33Z</time>
      </trkpt>
      <trkpt lat="45.48257" lon="6.95768">
        <ele>2132.82</ele>
        <time>2014-03-26T13:15:50Z</time>
      </trkpt>
      <trkpt lat="45.48261" lon="6.95763">
        <ele>2129.94</ele>
        <time>2014-03-26T13:16:00Z</time>
      </trkpt>
      <trkpt lat="45.48263" lon="6.95758">
        <ele>2128.5</ele>
        <time>2014-03-26T13:16:11Z</time>
      </trkpt>
      <trkpt lat="45.48265" lon="6.95758">
        <ele>2129.94</ele>
        <time>2014-03-26T13:16:28Z</time>
      </trkpt>
      <trkpt lat="45.48268" lon="6.95753">
        <ele>2126.09</ele>
        <time>2014-03-26T13:16:50Z</time>
      </trkpt>
      <trkpt lat="45.48273" lon="6.95739">
        <ele>2121.77</ele>
        <time>2014-03-26T13:17:05Z</time>
      </trkpt>
      <trkpt lat="45.48273" lon="6.95737">
        <ele>2121.29</ele>
        <time>2014-03-26T13:17:07Z</time>
      </trkpt>
      <trkpt lat="45.48272" lon="6.95734">
        <ele>2121.29</ele>
        <time>2014-03-26T13:17:10Z</time>
      </trkpt>
      <trkpt lat="45.48272" lon="6.95729">
        <ele>2120.32</ele>
        <time>2014-03-26T13:17:14Z</time>
      </trkpt>
      <trkpt lat="45.4827" lon="6.95715">
        <ele>2118.88</ele>
        <time>2014-03-26T13:17:25Z</time>
      </trkpt>
      <trkpt lat="45.48263" lon="6.957">
        <ele>2117.92</ele>
        <time>2014-03-26T13:17:36Z</time>
      </trkpt>
      <trkpt lat="45.48259" lon="6.95693">
        <ele>2118.4</ele>
        <time>2014-03-26T13:17:43Z</time>
      </trkpt>
      <trkpt lat="45.48254" lon="6.95678">
        <ele>2116.96</ele>
        <time>2014-03-26T13:17:55Z</time>
      </trkpt>
      <trkpt lat="45.48253" lon="6.95673">
        <ele>2115.52</ele>
        <time>2014-03-26T13:17:59Z</time>
      </trkpt>
      <trkpt lat="45.48251" lon="6.95664">
        <ele>2115.52</ele>
        <time>2014-03-26T13:18:06Z</time>
      </trkpt>
      <trkpt lat="45.4825" lon="6.95661">
        <ele>2115.52</ele>
        <time>2014-03-26T13:18:08Z</time>
      </trkpt>
      <trkpt lat="45.48248" lon="6.95658">
        <ele>2115.52</ele>
        <time>2014-03-26T13:18:20Z</time>
      </trkpt>
      <trkpt lat="45.48248" lon="6.95654">
        <ele>2117.44</ele>
        <time>2014-03-26T13:18:49Z</time>
      </trkpt>
      <trkpt lat="45.48247" lon="6.95657">
        <ele>2118.4</ele>
        <time>2014-03-26T13:19:18Z</time>
      </trkpt>
      <trkpt lat="45.48245" lon="6.95657">
        <ele>2116</ele>
        <time>2014-03-26T13:19:41Z</time>
      </trkpt>
      <trkpt lat="45.48246" lon="6.95657">
        <ele>2116.48</ele>
        <time>2014-03-26T13:19:59Z</time>
      </trkpt>
      <trkpt lat="45.48246" lon="6.9565">
        <ele>2115.52</ele>
        <time>2014-03-26T13:20:15Z</time>
      </trkpt>
      <trkpt lat="45.48237" lon="6.95631">
        <ele>2114.56</ele>
        <time>2014-03-26T13:20:30Z</time>
      </trkpt>
      <trkpt lat="45.48227" lon="6.95613">
        <ele>2110.71</ele>
        <time>2014-03-26T13:20:44Z</time>
      </trkpt>
      <trkpt lat="45.48223" lon="6.95606">
        <ele>2109.75</ele>
        <time>2014-03-26T13:20:49Z</time>
      </trkpt>
      <trkpt lat="45.48217" lon="6.95588">
        <ele>2106.87</ele>
        <time>2014-03-26T13:21:04Z</time>
      </trkpt>
      <trkpt lat="45.48212" lon="6.95572">
        <ele>2104.94</ele>
        <time>2014-03-26T13:21:16Z</time>
      </trkpt>
      <trkpt lat="45.48211" lon="6.9557">
        <ele>2104.46</ele>
        <time>2014-03-26T13:21:17Z</time>
      </trkpt>
      <trkpt lat="45.48199" lon="6.9555">
        <ele>2099.18</ele>
        <time>2014-03-26T13:21:33Z</time>
      </trkpt>
      <trkpt lat="45.48197" lon="6.95546">
        <ele>2097.25</ele>
        <time>2014-03-26T13:21:47Z</time>
      </trkpt>
      <trkpt lat="45.48196" lon="6.95545">
        <ele>2096.77</ele>
        <time>2014-03-26T13:22:12Z</time>
      </trkpt>
      <trkpt lat="45.48196" lon="6.95544">
        <ele>2096.77</ele>
        <time>2014-03-26T13:22:31Z</time>
      </trkpt>
      <trkpt lat="45.48196" lon="6.95544">
        <ele>2094.37</ele>
        <time>2014-03-26T13:22:58Z</time>
      </trkpt>
      <trkpt lat="45.48196" lon="6.95544">
        <ele>2094.37</ele>
        <time>2014-03-26T13:23:12Z</time>
      </trkpt>
      <trkpt lat="45.48194" lon="6.95546">
        <ele>2093.89</ele>
        <time>2014-03-26T13:23:33Z</time>
      </trkpt>
      <trkpt lat="45.48195" lon="6.95546">
        <ele>2096.29</ele>
        <time>2014-03-26T13:23:52Z</time>
      </trkpt>
      <trkpt lat="45.48197" lon="6.95543">
        <ele>2095.81</ele>
        <time>2014-03-26T13:24:22Z</time>
      </trkpt>
      <trkpt lat="45.48197" lon="6.95544">
        <ele>2094.37</ele>
        <time>2014-03-26T13:24:42Z</time>
      </trkpt>
      <trkpt lat="45.48195" lon="6.95544">
        <ele>2093.89</ele>
        <time>2014-03-26T13:25:04Z</time>
      </trkpt>
      <trkpt lat="45.48198" lon="6.95545">
        <ele>2092.93</ele>
        <time>2014-03-26T13:25:24Z</time>
      </trkpt>
      <trkpt lat="45.48201" lon="6.95543">
        <ele>2091.97</ele>
        <time>2014-03-26T13:25:50Z</time>
      </trkpt>
      <trkpt lat="45.48199" lon="6.95544">
        <ele>2094.37</ele>
        <time>2014-03-26T13:26:15Z</time>
      </trkpt>
      <trkpt lat="45.48195" lon="6.95546">
        <ele>2095.33</ele>
        <time>2014-03-26T13:26:37Z</time>
      </trkpt>
      <trkpt lat="45.48195" lon="6.95543">
        <ele>2096.29</ele>
        <time>2014-03-26T13:27:01Z</time>
      </trkpt>
      <trkpt lat="45.48196" lon="6.95543">
        <ele>2096.77</ele>
        <time>2014-03-26T13:27:34Z</time>
      </trkpt>
      <trkpt lat="45.48196" lon="6.95544">
        <ele>2096.77</ele>
        <time>2014-03-26T13:28:04Z</time>
      </trkpt>
      <trkpt lat="45.48195" lon="6.95545">
        <ele>2095.81</ele>
        <time>2014-03-26T13:28:37Z</time>
      </trkpt>
      <trkpt lat="45.48196" lon="6.95545">
        <ele>2095.33</ele>
        <time>2014-03-26T13:29:00Z</time>
      </trkpt>
      <trkpt lat="45.4819" lon="6.95536">
        <ele>2093.41</ele>
        <time>2014-03-26T13:29:14Z</time>
      </trkpt>
      <trkpt lat="45.4818" lon="6.95524">
        <ele>2090.52</ele>
        <time>2014-03-26T13:29:28Z</time>
      </trkpt>
      <trkpt lat="45.48176" lon="6.9552">
        <ele>2089.08</ele>
        <time>2014-03-26T13:29:33Z</time>
      </trkpt>
      <trkpt lat="45.48165" lon="6.95507">
        <ele>2087.64</ele>
        <time>2014-03-26T13:29:47Z</time>
      </trkpt>
      <trkpt lat="45.48159" lon="6.95499">
        <ele>2086.68</ele>
        <time>2014-03-26T13:29:55Z</time>
      </trkpt>
      <trkpt lat="45.48148" lon="6.95483">
        <ele>2083.31</ele>
        <time>2014-03-26T13:30:11Z</time>
      </trkpt>
      <trkpt lat="45.48141" lon="6.95483">
        <ele>2080.91</ele>
        <time>2014-03-26T13:30:25Z</time>
      </trkpt>
      <trkpt lat="45.48138" lon="6.95484">
        <ele>2080.43</ele>
        <time>2014-03-26T13:30:31Z</time>
      </trkpt>
      <trkpt lat="45.48124" lon="6.95487">
        <ele>2076.1</ele>
        <time>2014-03-26T13:30:45Z</time>
      </trkpt>
      <trkpt lat="45.4811" lon="6.95488">
        <ele>2072.74</ele>
        <time>2014-03-26T13:31:01Z</time>
      </trkpt>
      <trkpt lat="45.48098" lon="6.95491">
        <ele>2069.86</ele>
        <time>2014-03-26T13:31:15Z</time>
      </trkpt>
      <trkpt lat="45.48094" lon="6.95493">
        <ele>2067.93</ele>
        <time>2014-03-26T13:31:33Z</time>
      </trkpt>
      <trkpt lat="45.48093" lon="6.95493">
        <ele>2067.45</ele>
        <time>2014-03-26T13:31:55Z</time>
      </trkpt>
      <trkpt lat="45.48081" lon="6.95495">
        <ele>2066.01</ele>
        <time>2014-03-26T13:32:10Z</time>
      </trkpt>
      <trkpt lat="45.48063" lon="6.95501">
        <ele>2061.68</ele>
        <time>2014-03-26T13:32:28Z</time>
      </trkpt>
      <trkpt lat="45.48062" lon="6.95502">
        <ele>2061.2</ele>
        <time>2014-03-26T13:32:29Z</time>
      </trkpt>
      <trkpt lat="45.48049" lon="6.95504">
        <ele>2057.84</ele>
        <time>2014-03-26T13:32:42Z</time>
      </trkpt>
      <trkpt lat="45.48047" lon="6.95505">
        <ele>2057.84</ele>
        <time>2014-03-26T13:32:47Z</time>
      </trkpt>
      <trkpt lat="45.48032" lon="6.95508">
        <ele>2055.44</ele>
        <time>2014-03-26T13:33:04Z</time>
      </trkpt>
      <trkpt lat="45.48022" lon="6.95512">
        <ele>2052.55</ele>
        <time>2014-03-26T13:33:16Z</time>
      </trkpt>
      <trkpt lat="45.48017" lon="6.95515">
        <ele>2052.07</ele>
        <time>2014-03-26T13:33:29Z</time>
      </trkpt>
      <trkpt lat="45.48006" lon="6.95521">
        <ele>2050.15</ele>
        <time>2014-03-26T13:33:41Z</time>
      </trkpt>
      <trkpt lat="45.48003" lon="6.95523">
        <ele>2050.15</ele>
        <time>2014-03-26T13:33:44Z</time>
      </trkpt>
      <trkpt lat="45.48" lon="6.95526">
        <ele>2049.67</ele>
        <time>2014-03-26T13:33:48Z</time>
      </trkpt>
      <trkpt lat="45.47998" lon="6.95528">
        <ele>2048.71</ele>
        <time>2014-03-26T13:33:51Z</time>
      </trkpt>
      <trkpt lat="45.47982" lon="6.95537">
        <ele>2047.26</ele>
        <time>2014-03-26T13:34:08Z</time>
      </trkpt>
      <trkpt lat="45.47977" lon="6.95542">
        <ele>2048.23</ele>
        <time>2014-03-26T13:34:22Z</time>
      </trkpt>
      <trkpt lat="45.47965" lon="6.95552">
        <ele>2044.86</ele>
        <time>2014-03-26T13:34:35Z</time>
      </trkpt>
      <trkpt lat="45.47957" lon="6.95564">
        <ele>2041.5</ele>
        <time>2014-03-26T13:34:51Z</time>
      </trkpt>
      <trkpt lat="45.47954" lon="6.95568">
        <ele>2041.02</ele>
        <time>2014-03-26T13:34:56Z</time>
      </trkpt>
      <trkpt lat="45.47951" lon="6.95574">
        <ele>2039.57</ele>
        <time>2014-03-26T13:35:03Z</time>
      </trkpt>
      <trkpt lat="45.47949" lon="6.9558">
        <ele>2039.57</ele>
        <time>2014-03-26T13:35:10Z</time>
      </trkpt>
      <trkpt lat="45.47942" lon="6.95591">
        <ele>2037.65</ele>
        <time>2014-03-26T13:35:28Z</time>
      </trkpt>
      <trkpt lat="45.47936" lon="6.95597">
        <ele>2035.73</ele>
        <time>2014-03-26T13:35:42Z</time>
      </trkpt>
      <trkpt lat="45.47928" lon="6.95599">
        <ele>2032.84</ele>
        <time>2014-03-26T13:35:56Z</time>
      </trkpt>
      <trkpt lat="45.47923" lon="6.95605">
        <ele>2031.88</ele>
        <time>2014-03-26T13:36:10Z</time>
      </trkpt>
      <trkpt lat="45.47919" lon="6.95612">
        <ele>2030.44</ele>
        <time>2014-03-26T13:36:25Z</time>
      </trkpt>
      <trkpt lat="45.47918" lon="6.95612">
        <ele>2030.44</ele>
        <time>2014-03-26T13:36:28Z</time>
      </trkpt>
      <trkpt lat="45.4791" lon="6.9562">
        <ele>2028.52</ele>
        <time>2014-03-26T13:36:42Z</time>
      </trkpt>
      <trkpt lat="45.47906" lon="6.95626">
        <ele>2027.56</ele>
        <time>2014-03-26T13:36:52Z</time>
      </trkpt>
      <trkpt lat="45.47904" lon="6.95628">
        <ele>2027.08</ele>
        <time>2014-03-26T13:36:55Z</time>
      </trkpt>
      <trkpt lat="45.47895" lon="6.95637">
        <ele>2024.19</ele>
        <time>2014-03-26T13:37:10Z</time>
      </trkpt>
      <trkpt lat="45.47891" lon="6.95641">
        <ele>2022.27</ele>
        <time>2014-03-26T13:37:24Z</time>
      </trkpt>
      <trkpt lat="45.47889" lon="6.95644">
        <ele>2022.75</ele>
        <time>2014-03-26T13:37:37Z</time>
      </trkpt>
      <trkpt lat="45.47883" lon="6.95647">
        <ele>2020.83</ele>
        <time>2014-03-26T13:37:52Z</time>
      </trkpt>
      <trkpt lat="45.47878" lon="6.95651">
        <ele>2019.87</ele>
        <time>2014-03-26T13:38:05Z</time>
      </trkpt>
      <trkpt lat="45.4787" lon="6.95654">
        <ele>2017.46</ele>
        <time>2014-03-26T13:38:19Z</time>
      </trkpt>
      <trkpt lat="45.47868" lon="6.95652">
        <ele>2018.43</ele>
        <time>2014-03-26T13:38:32Z</time>
      </trkpt>
      <trkpt lat="45.47871" lon="6.95647">
        <ele>2018.43</ele>
        <time>2014-03-26T13:38:42Z</time>
      </trkpt>
      <trkpt lat="45.47874" lon="6.95641">
        <ele>2016.5</ele>
        <time>2014-03-26T13:38:56Z</time>
      </trkpt>
      <trkpt lat="45.47877" lon="6.95636">
        <ele>2016.02</ele>
        <time>2014-03-26T13:39:06Z</time>
      </trkpt>
      <trkpt lat="45.47883" lon="6.95622">
        <ele>2013.14</ele>
        <time>2014-03-26T13:39:21Z</time>
      </trkpt>
      <trkpt lat="45.47887" lon="6.95613">
        <ele>2012.66</ele>
        <time>2014-03-26T13:39:29Z</time>
      </trkpt>
      <trkpt lat="45.47892" lon="6.95597">
        <ele>2010.73</ele>
        <time>2014-03-26T13:39:42Z</time>
      </trkpt>
      <trkpt lat="45.47896" lon="6.95576">
        <ele>2010.73</ele>
        <time>2014-03-26T13:39:58Z</time>
      </trkpt>
      <trkpt lat="45.47898" lon="6.95567">
        <ele>2009.29</ele>
        <time>2014-03-26T13:40:05Z</time>
      </trkpt>
      <trkpt lat="45.47907" lon="6.95545">
        <ele>2006.41</ele>
        <time>2014-03-26T13:40:22Z</time>
      </trkpt>
      <trkpt lat="45.47913" lon="6.95522">
        <ele>2004.01</ele>
        <time>2014-03-26T13:40:38Z</time>
      </trkpt>
      <trkpt lat="45.47914" lon="6.95497">
        <ele>2002.56</ele>
        <time>2014-03-26T13:40:55Z</time>
      </trkpt>
      <trkpt lat="45.47914" lon="6.95484">
        <ele>2001.6</ele>
        <time>2014-03-26T13:41:10Z</time>
      </trkpt>
      <trkpt lat="45.47915" lon="6.95484">
        <ele>2002.08</ele>
        <time>2014-03-26T13:41:34Z</time>
      </trkpt>
      <trkpt lat="45.47913" lon="6.95477">
        <ele>2002.08</ele>
        <time>2014-03-26T13:41:55Z</time>
      </trkpt>
      <trkpt lat="45.47912" lon="6.95466">
        <ele>2000.64</ele>
        <time>2014-03-26T13:42:03Z</time>
      </trkpt>
      <trkpt lat="45.47912" lon="6.95444">
        <ele>2000.16</ele>
        <time>2014-03-26T13:42:18Z</time>
      </trkpt>
      <trkpt lat="45.4792" lon="6.95424">
        <ele>1998.72</ele>
        <time>2014-03-26T13:42:34Z</time>
      </trkpt>
      <trkpt lat="45.4792" lon="6.95423">
        <ele>1998.24</ele>
        <time>2014-03-26T13:42:35Z</time>
      </trkpt>
      <trkpt lat="45.47922" lon="6.95418">
        <ele>1998.24</ele>
        <time>2014-03-26T13:42:39Z</time>
      </trkpt>
      <trkpt lat="45.47921" lon="6.95414">
        <ele>1997.76</ele>
        <time>2014-03-26T13:42:42Z</time>
      </trkpt>
      <trkpt lat="45.47917" lon="6.95413">
        <ele>1997.28</ele>
        <time>2014-03-26T13:42:46Z</time>
      </trkpt>
      <trkpt lat="45.47906" lon="6.95426">
        <ele>1993.91</ele>
        <time>2014-03-26T13:43:01Z</time>
      </trkpt>
      <trkpt lat="45.47899" lon="6.95449">
        <ele>1992.47</ele>
        <time>2014-03-26T13:43:17Z</time>
      </trkpt>
      <trkpt lat="45.47895" lon="6.9547">
        <ele>1991.51</ele>
        <time>2014-03-26T13:43:33Z</time>
      </trkpt>
      <trkpt lat="45.47891" lon="6.95487">
        <ele>1990.07</ele>
        <time>2014-03-26T13:43:46Z</time>
      </trkpt>
      <trkpt lat="45.47891" lon="6.95488">
        <ele>1990.07</ele>
        <time>2014-03-26T13:43:47Z</time>
      </trkpt>
      <trkpt lat="45.4789" lon="6.95491">
        <ele>1989.59</ele>
        <time>2014-03-26T13:43:49Z</time>
      </trkpt>
      <trkpt lat="45.47886" lon="6.95499">
        <ele>1988.62</ele>
        <time>2014-03-26T13:43:56Z</time>
      </trkpt>
      <trkpt lat="45.47877" lon="6.95518">
        <ele>1986.22</ele>
        <time>2014-03-26T13:44:12Z</time>
      </trkpt>
      <trkpt lat="45.47875" lon="6.95521">
        <ele>1985.74</ele>
        <time>2014-03-26T13:44:15Z</time>
      </trkpt>
      <trkpt lat="45.47868" lon="6.95537">
        <ele>1983.82</ele>
        <time>2014-03-26T13:44:29Z</time>
      </trkpt>
      <trkpt lat="45.47859" lon="6.95552">
        <ele>1983.34</ele>
        <time>2014-03-26T13:44:43Z</time>
      </trkpt>
      <trkpt lat="45.4785" lon="6.95561">
        <ele>1982.38</ele>
        <time>2014-03-26T13:44:56Z</time>
      </trkpt>
      <trkpt lat="45.47843" lon="6.95568">
        <ele>1982.38</ele>
        <time>2014-03-26T13:45:07Z</time>
      </trkpt>
      <trkpt lat="45.4784" lon="6.95572">
        <ele>1979.97</ele>
        <time>2014-03-26T13:45:13Z</time>
      </trkpt>
      <trkpt lat="45.47837" lon="6.95574">
        <ele>1979.49</ele>
        <time>2014-03-26T13:45:17Z</time>
      </trkpt>
      <trkpt lat="45.4783" lon="6.9558">
        <ele>1978.05</ele>
        <time>2014-03-26T13:45:27Z</time>
      </trkpt>
      <trkpt lat="45.47819" lon="6.95589">
        <ele>1977.09</ele>
        <time>2014-03-26T13:45:40Z</time>
      </trkpt>
      <trkpt lat="45.47813" lon="6.95599">
        <ele>1979.01</ele>
        <time>2014-03-26T13:45:53Z</time>
      </trkpt>
      <trkpt lat="45.47805" lon="6.95605">
        <ele>1978.05</ele>
        <time>2014-03-26T13:46:02Z</time>
      </trkpt>
      <trkpt lat="45.47799" lon="6.95607">
        <ele>1976.61</ele>
        <time>2014-03-26T13:46:09Z</time>
      </trkpt>
      <trkpt lat="45.47795" lon="6.95607">
        <ele>1975.65</ele>
        <time>2014-03-26T13:46:14Z</time>
      </trkpt>
      <trkpt lat="45.47792" lon="6.95608">
        <ele>1974.69</ele>
        <time>2014-03-26T13:46:18Z</time>
      </trkpt>
      <trkpt lat="45.47785" lon="6.95612">
        <ele>1973.72</ele>
        <time>2014-03-26T13:46:29Z</time>
      </trkpt>
      <trkpt lat="45.47775" lon="6.95613">
        <ele>1973.24</ele>
        <time>2014-03-26T13:46:39Z</time>
      </trkpt>
      <trkpt lat="45.47761" lon="6.95618">
        <ele>1972.76</ele>
        <time>2014-03-26T13:46:55Z</time>
      </trkpt>
      <trkpt lat="45.47749" lon="6.9562">
        <ele>1971.32</ele>
        <time>2014-03-26T13:47:10Z</time>
      </trkpt>
      <trkpt lat="45.47738" lon="6.95621">
        <ele>1969.88</ele>
        <time>2014-03-26T13:47:26Z</time>
      </trkpt>
      <trkpt lat="45.47727" lon="6.95624">
        <ele>1967.96</ele>
        <time>2014-03-26T13:47:40Z</time>
      </trkpt>
      <trkpt lat="45.47715" lon="6.95629">
        <ele>1965.55</ele>
        <time>2014-03-26T13:47:54Z</time>
      </trkpt>
      <trkpt lat="45.47703" lon="6.95636">
        <ele>1964.11</ele>
        <time>2014-03-26T13:48:09Z</time>
      </trkpt>
      <trkpt lat="45.47692" lon="6.95646">
        <ele>1961.23</ele>
        <time>2014-03-26T13:48:24Z</time>
      </trkpt>
      <trkpt lat="45.47682" lon="6.95654">
        <ele>1959.78</ele>
        <time>2014-03-26T13:48:37Z</time>
      </trkpt>
      <trkpt lat="45.47671" lon="6.95663">
        <ele>1958.82</ele>
        <time>2014-03-26T13:48:51Z</time>
      </trkpt>
      <trkpt lat="45.47661" lon="6.95671">
        <ele>1957.86</ele>
        <time>2014-03-26T13:49:03Z</time>
      </trkpt>
      <trkpt lat="45.47651" lon="6.95676">
        <ele>1956.9</ele>
        <time>2014-03-26T13:49:16Z</time>
      </trkpt>
      <trkpt lat="45.47638" lon="6.95682">
        <ele>1954.98</ele>
        <time>2014-03-26T13:49:31Z</time>
      </trkpt>
      <trkpt lat="45.47634" lon="6.95685">
        <ele>1954.5</ele>
        <time>2014-03-26T13:49:36Z</time>
      </trkpt>
      <trkpt lat="45.47623" lon="6.9569">
        <ele>1953.54</ele>
        <time>2014-03-26T13:49:50Z</time>
      </trkpt>
      <trkpt lat="45.47611" lon="6.95696">
        <ele>1952.09</ele>
        <time>2014-03-26T13:50:04Z</time>
      </trkpt>
      <trkpt lat="45.47599" lon="6.95705">
        <ele>1951.61</ele>
        <time>2014-03-26T13:50:18Z</time>
      </trkpt>
      <trkpt lat="45.47588" lon="6.95713">
        <ele>1951.13</ele>
        <time>2014-03-26T13:50:30Z</time>
      </trkpt>
      <trkpt lat="45.47575" lon="6.95731">
        <ele>1949.69</ele>
        <time>2014-03-26T13:50:50Z</time>
      </trkpt>
      <trkpt lat="45.47572" lon="6.95734">
        <ele>1950.17</ele>
        <time>2014-03-26T13:50:55Z</time>
      </trkpt>
      <trkpt lat="45.47563" lon="6.95734">
        <ele>1948.73</ele>
        <time>2014-03-26T13:51:08Z</time>
      </trkpt>
    </trkseg>
  </trk>
</gpx>